<?xml version="1.0" encoding="UTF-8" standalone="no" ?>
<gpx xmlns="http://www.topografix.com/GPX/1/1" xmlns:xsi="http://www.w3.org/2001/XMLSchema-instance" xsi:schemaLocation="http://www.topografix.com/GPX/1/1 http://www.topografix.com/GPX/1/1/gpx.xsd" version="1.1" creator="VisuGPX - https://www.visugpx.com">
  <metadata>
    <name>SKI FONT ROMEU</name>
    <desc><![CDATA[départ col del palm]]></desc>
  </metadata>
  <trk>
    <name><![CDATA[SKI FONT ROMEU_1]]></name>
    <extensions>
      <line xmlns="http://www.topografix.com/GPX/gpx_style/0/2">
        <color>ff8040</color>
        <width>4</width>
      </line>
    </extensions>
    <trkseg>
      <trkpt lat="42.53986" lon="2.03644">
        <ele>1903.6</ele>
        <time>2021-12-29T11:32:58Z</time>
      </trkpt>
      <trkpt lat="42.53981" lon="2.03628">
        <ele>1885.2</ele>
      </trkpt>
      <trkpt lat="42.53986" lon="2.03644">
        <ele>1903.6</ele>
        <time>2021-12-29T11:32:58Z</time>
      </trkpt>
      <trkpt lat="42.53871" lon="2.03469">
        <ele>1943.7</ele>
      </trkpt>
      <trkpt lat="42.53378" lon="2.02927">
        <ele>2115.5</ele>
      </trkpt>
      <trkpt lat="42.53168" lon="2.02842">
        <ele>2092.1</ele>
        <time>2021-12-29T11:32:58Z</time>
      </trkpt>
      <trkpt lat="42.53095" lon="2.0289">
        <ele>2091.2</ele>
        <time>2021-12-29T11:33:18Z</time>
      </trkpt>
      <trkpt lat="42.53051" lon="2.02902">
        <ele>2085.8</ele>
        <time>2021-12-29T11:33:38Z</time>
      </trkpt>
      <trkpt lat="42.53005" lon="2.0292">
        <ele>2080</ele>
        <time>2021-12-29T11:33:48Z</time>
      </trkpt>
      <trkpt lat="42.5296" lon="2.02949">
        <ele>2072.7</ele>
        <time>2021-12-29T11:33:58Z</time>
      </trkpt>
      <trkpt lat="42.52924" lon="2.02983">
        <ele>2067.4</ele>
        <time>2021-12-29T11:34:08Z</time>
      </trkpt>
      <trkpt lat="42.52881" lon="2.03025">
        <ele>2063.5</ele>
        <time>2021-12-29T11:34:18Z</time>
      </trkpt>
      <trkpt lat="42.52842" lon="2.03069">
        <ele>2059.1</ele>
        <time>2021-12-29T11:34:28Z</time>
      </trkpt>
      <trkpt lat="42.52831" lon="2.03088">
        <ele>2057.7</ele>
        <time>2021-12-29T11:34:48Z</time>
      </trkpt>
      <trkpt lat="42.52806" lon="2.03114">
        <ele>2054.6</ele>
        <time>2021-12-29T11:35:08Z</time>
      </trkpt>
      <trkpt lat="42.52784" lon="2.0318">
        <ele>2051.2</ele>
        <time>2021-12-29T11:35:18Z</time>
      </trkpt>
      <trkpt lat="42.52749" lon="2.03196">
        <ele>2045.8</ele>
        <time>2021-12-29T11:35:28Z</time>
      </trkpt>
      <trkpt lat="42.52686" lon="2.03213">
        <ele>2035.7</ele>
        <time>2021-12-29T11:35:48Z</time>
      </trkpt>
      <trkpt lat="42.52625" lon="2.03238">
        <ele>2024.6</ele>
        <time>2021-12-29T11:35:58Z</time>
      </trkpt>
      <trkpt lat="42.52588" lon="2.03251">
        <ele>2017.8</ele>
        <time>2021-12-29T11:36:08Z</time>
      </trkpt>
      <trkpt lat="42.52559" lon="2.03253">
        <ele>2012</ele>
        <time>2021-12-29T11:36:28Z</time>
      </trkpt>
      <trkpt lat="42.52507" lon="2.0329">
        <ele>2000.5</ele>
        <time>2021-12-29T11:36:48Z</time>
      </trkpt>
      <trkpt lat="42.52445" lon="2.03319">
        <ele>1985.7</ele>
        <time>2021-12-29T11:36:58Z</time>
      </trkpt>
      <trkpt lat="42.5238" lon="2.03311">
        <ele>1973.2</ele>
        <time>2021-12-29T11:37:08Z</time>
      </trkpt>
      <trkpt lat="42.52311" lon="2.03324">
        <ele>1961</ele>
        <time>2021-12-29T11:37:18Z</time>
      </trkpt>
      <trkpt lat="42.52239" lon="2.0337">
        <ele>1950.7</ele>
        <time>2021-12-29T11:37:28Z</time>
      </trkpt>
      <trkpt lat="42.5219" lon="2.03422">
        <ele>1945.6</ele>
        <time>2021-12-29T11:37:38Z</time>
      </trkpt>
      <trkpt lat="42.52146" lon="2.03465">
        <ele>1944.6</ele>
        <time>2021-12-29T11:37:48Z</time>
      </trkpt>
      <trkpt lat="42.52136" lon="2.03509">
        <ele>1944</ele>
        <time>2021-12-29T11:37:58Z</time>
      </trkpt>
      <trkpt lat="42.52155" lon="2.03542">
        <ele>1941.5</ele>
        <time>2021-12-29T11:42:38Z</time>
      </trkpt>
      <trkpt lat="42.52178" lon="2.03529">
        <ele>1942.4</ele>
        <time>2021-12-29T11:42:58Z</time>
      </trkpt>
      <trkpt lat="42.52198" lon="2.03515">
        <ele>1944.5</ele>
        <time>2021-12-29T11:43:08Z</time>
      </trkpt>
      <trkpt lat="42.52222" lon="2.03504">
        <ele>1946.8</ele>
        <time>2021-12-29T11:43:18Z</time>
      </trkpt>
      <trkpt lat="42.52247" lon="2.03494">
        <ele>1948.9</ele>
        <time>2021-12-29T11:43:28Z</time>
      </trkpt>
      <trkpt lat="42.52272" lon="2.03482">
        <ele>1952.1</ele>
        <time>2021-12-29T11:43:38Z</time>
      </trkpt>
      <trkpt lat="42.523" lon="2.0347">
        <ele>1955.7</ele>
        <time>2021-12-29T11:43:48Z</time>
      </trkpt>
      <trkpt lat="42.52325" lon="2.03459">
        <ele>1958.9</ele>
        <time>2021-12-29T11:43:58Z</time>
      </trkpt>
      <trkpt lat="42.52353" lon="2.03447">
        <ele>1964.2</ele>
        <time>2021-12-29T11:44:08Z</time>
      </trkpt>
      <trkpt lat="42.52377" lon="2.03435">
        <ele>1969.6</ele>
        <time>2021-12-29T11:44:18Z</time>
      </trkpt>
      <trkpt lat="42.52403" lon="2.03427">
        <ele>1975.6</ele>
        <time>2021-12-29T11:44:28Z</time>
      </trkpt>
      <trkpt lat="42.5243" lon="2.03416">
        <ele>1982.4</ele>
        <time>2021-12-29T11:44:38Z</time>
      </trkpt>
      <trkpt lat="42.52456" lon="2.03405">
        <ele>1988.7</ele>
        <time>2021-12-29T11:44:48Z</time>
      </trkpt>
      <trkpt lat="42.52485" lon="2.03394">
        <ele>1995.7</ele>
        <time>2021-12-29T11:44:58Z</time>
      </trkpt>
      <trkpt lat="42.52508" lon="2.03384">
        <ele>2000.8</ele>
        <time>2021-12-29T11:45:08Z</time>
      </trkpt>
      <trkpt lat="42.52533" lon="2.03372">
        <ele>2005.5</ele>
        <time>2021-12-29T11:45:18Z</time>
      </trkpt>
      <trkpt lat="42.52562" lon="2.0336">
        <ele>2011</ele>
        <time>2021-12-29T11:45:28Z</time>
      </trkpt>
      <trkpt lat="42.5259" lon="2.03349">
        <ele>2016.1</ele>
        <time>2021-12-29T11:45:38Z</time>
      </trkpt>
      <trkpt lat="42.52617" lon="2.03338">
        <ele>2019.9</ele>
        <time>2021-12-29T11:45:48Z</time>
      </trkpt>
      <trkpt lat="42.52647" lon="2.03326">
        <ele>2024.5</ele>
        <time>2021-12-29T11:45:58Z</time>
      </trkpt>
      <trkpt lat="42.52673" lon="2.03315">
        <ele>2029</ele>
        <time>2021-12-29T11:46:08Z</time>
      </trkpt>
      <trkpt lat="42.527" lon="2.03303">
        <ele>2034.4</ele>
        <time>2021-12-29T11:46:18Z</time>
      </trkpt>
      <trkpt lat="42.52726" lon="2.03291">
        <ele>2039.3</ele>
        <time>2021-12-29T11:46:28Z</time>
      </trkpt>
      <trkpt lat="42.52753" lon="2.0328">
        <ele>2044.1</ele>
        <time>2021-12-29T11:46:38Z</time>
      </trkpt>
      <trkpt lat="42.52781" lon="2.03267">
        <ele>2049</ele>
        <time>2021-12-29T11:46:48Z</time>
      </trkpt>
      <trkpt lat="42.52805" lon="2.03254">
        <ele>2053.2</ele>
        <time>2021-12-29T11:46:58Z</time>
      </trkpt>
      <trkpt lat="42.52834" lon="2.03243">
        <ele>2058.1</ele>
        <time>2021-12-29T11:47:08Z</time>
      </trkpt>
      <trkpt lat="42.5286" lon="2.03232">
        <ele>2062.2</ele>
        <time>2021-12-29T11:47:18Z</time>
      </trkpt>
      <trkpt lat="42.52885" lon="2.03221">
        <ele>2066.3</ele>
        <time>2021-12-29T11:47:28Z</time>
      </trkpt>
      <trkpt lat="42.52911" lon="2.0321">
        <ele>2070.6</ele>
        <time>2021-12-29T11:47:38Z</time>
      </trkpt>
      <trkpt lat="42.52936" lon="2.03201">
        <ele>2075</ele>
        <time>2021-12-29T11:47:48Z</time>
      </trkpt>
      <trkpt lat="42.52963" lon="2.03189">
        <ele>2079.9</ele>
        <time>2021-12-29T11:47:58Z</time>
      </trkpt>
      <trkpt lat="42.52993" lon="2.03174">
        <ele>2085.6</ele>
        <time>2021-12-29T11:48:08Z</time>
      </trkpt>
      <trkpt lat="42.53021" lon="2.03162">
        <ele>2091.3</ele>
        <time>2021-12-29T11:48:18Z</time>
      </trkpt>
      <trkpt lat="42.53046" lon="2.03152">
        <ele>2096.4</ele>
        <time>2021-12-29T11:48:28Z</time>
      </trkpt>
      <trkpt lat="42.53073" lon="2.0314">
        <ele>2101.9</ele>
        <time>2021-12-29T11:48:38Z</time>
      </trkpt>
      <trkpt lat="42.53097" lon="2.03128">
        <ele>2106.1</ele>
        <time>2021-12-29T11:48:48Z</time>
      </trkpt>
      <trkpt lat="42.53123" lon="2.03117">
        <ele>2110.2</ele>
        <time>2021-12-29T11:48:58Z</time>
      </trkpt>
      <trkpt lat="42.53152" lon="2.03115">
        <ele>2114.7</ele>
        <time>2021-12-29T11:49:08Z</time>
      </trkpt>
      <trkpt lat="42.53167" lon="2.03133">
        <ele>2117</ele>
        <time>2021-12-29T11:50:48Z</time>
      </trkpt>
      <trkpt lat="42.53176" lon="2.03146">
        <ele>2118.1</ele>
        <time>2021-12-29T11:51:08Z</time>
      </trkpt>
      <trkpt lat="42.53183" lon="2.03156">
        <ele>2118.9</ele>
        <time>2021-12-29T11:51:18Z</time>
      </trkpt>
      <trkpt lat="42.53208" lon="2.03183">
        <ele>2120.8</ele>
        <time>2021-12-29T11:51:28Z</time>
      </trkpt>
      <trkpt lat="42.53234" lon="2.03263">
        <ele>2118</ele>
        <time>2021-12-29T11:51:38Z</time>
      </trkpt>
      <trkpt lat="42.53258" lon="2.03318">
        <ele>2115.2</ele>
        <time>2021-12-29T11:51:48Z</time>
      </trkpt>
      <trkpt lat="42.53299" lon="2.03358">
        <ele>2112.3</ele>
        <time>2021-12-29T11:51:58Z</time>
      </trkpt>
      <trkpt lat="42.53347" lon="2.03419">
        <ele>2106.8</ele>
        <time>2021-12-29T11:52:08Z</time>
      </trkpt>
      <trkpt lat="42.53374" lon="2.03501">
        <ele>2096</ele>
        <time>2021-12-29T11:52:18Z</time>
      </trkpt>
      <trkpt lat="42.5339" lon="2.03591">
        <ele>2081.9</ele>
        <time>2021-12-29T11:52:28Z</time>
      </trkpt>
      <trkpt lat="42.53412" lon="2.03781">
        <ele>2055.8</ele>
        <time>2021-12-29T11:52:58Z</time>
      </trkpt>
      <trkpt lat="42.53453" lon="2.03891">
        <ele>2036.4</ele>
        <time>2021-12-29T11:53:18Z</time>
      </trkpt>
      <trkpt lat="42.53479" lon="2.03974">
        <ele>2026.3</ele>
        <time>2021-12-29T11:53:28Z</time>
      </trkpt>
      <trkpt lat="42.53479" lon="2.04099">
        <ele>2013.5</ele>
        <time>2021-12-29T11:53:38Z</time>
      </trkpt>
      <trkpt lat="42.53475" lon="2.04175">
        <ele>2005.9</ele>
        <time>2021-12-29T11:53:48Z</time>
      </trkpt>
      <trkpt lat="42.5347" lon="2.04203">
        <ele>2004.8</ele>
        <time>2021-12-29T11:53:58Z</time>
      </trkpt>
      <trkpt lat="42.5346" lon="2.04237">
        <ele>2003.2</ele>
        <time>2021-12-29T11:54:18Z</time>
      </trkpt>
      <trkpt lat="42.53457" lon="2.04249">
        <ele>2002.5</ele>
        <time>2021-12-29T11:54:38Z</time>
      </trkpt>
      <trkpt lat="42.53453" lon="2.04262">
        <ele>2002.6</ele>
        <time>2021-12-29T11:54:48Z</time>
      </trkpt>
      <trkpt lat="42.53448" lon="2.04274">
        <ele>2002.7</ele>
        <time>2021-12-29T11:54:58Z</time>
      </trkpt>
      <trkpt lat="42.53441" lon="2.04288">
        <ele>2002.7</ele>
        <time>2021-12-29T11:55:08Z</time>
      </trkpt>
      <trkpt lat="42.53436" lon="2.04302">
        <ele>2002.7</ele>
        <time>2021-12-29T11:55:18Z</time>
      </trkpt>
      <trkpt lat="42.53428" lon="2.04323">
        <ele>2002.5</ele>
        <time>2021-12-29T11:55:28Z</time>
      </trkpt>
      <trkpt lat="42.5341" lon="2.04352">
        <ele>2001.9</ele>
        <time>2021-12-29T11:55:38Z</time>
      </trkpt>
      <trkpt lat="42.53393" lon="2.04374">
        <ele>2001.7</ele>
        <time>2021-12-29T11:55:48Z</time>
      </trkpt>
      <trkpt lat="42.53382" lon="2.04407">
        <ele>2001.9</ele>
        <time>2021-12-29T11:55:58Z</time>
      </trkpt>
      <trkpt lat="42.53358" lon="2.04453">
        <ele>2002.7</ele>
        <time>2021-12-29T11:56:08Z</time>
      </trkpt>
      <trkpt lat="42.53348" lon="2.04472">
        <ele>2003.4</ele>
        <time>2021-12-29T11:56:18Z</time>
      </trkpt>
      <trkpt lat="42.5334" lon="2.04483">
        <ele>2004.1</ele>
        <time>2021-12-29T11:56:28Z</time>
      </trkpt>
      <trkpt lat="42.53329" lon="2.04497">
        <ele>2004.3</ele>
        <time>2021-12-29T11:56:38Z</time>
      </trkpt>
      <trkpt lat="42.53324" lon="2.04515">
        <ele>2002.9</ele>
        <time>2021-12-29T11:56:48Z</time>
      </trkpt>
      <trkpt lat="42.53308" lon="2.04538">
        <ele>1999.8</ele>
        <time>2021-12-29T11:56:58Z</time>
      </trkpt>
      <trkpt lat="42.5329" lon="2.04569">
        <ele>1996.8</ele>
        <time>2021-12-29T11:57:08Z</time>
      </trkpt>
      <trkpt lat="42.53276" lon="2.04613">
        <ele>1994.5</ele>
        <time>2021-12-29T11:57:18Z</time>
      </trkpt>
      <trkpt lat="42.53268" lon="2.04658">
        <ele>1993</ele>
        <time>2021-12-29T11:57:28Z</time>
      </trkpt>
      <trkpt lat="42.5327" lon="2.04699">
        <ele>1994.2</ele>
        <time>2021-12-29T11:57:38Z</time>
      </trkpt>
      <trkpt lat="42.53266" lon="2.0473">
        <ele>1995.5</ele>
        <time>2021-12-29T11:57:48Z</time>
      </trkpt>
      <trkpt lat="42.53254" lon="2.04767">
        <ele>1997.5</ele>
        <time>2021-12-29T11:57:58Z</time>
      </trkpt>
      <trkpt lat="42.53244" lon="2.04817">
        <ele>1999</ele>
        <time>2021-12-29T11:58:08Z</time>
      </trkpt>
      <trkpt lat="42.5323" lon="2.04858">
        <ele>1994.2</ele>
        <time>2021-12-29T11:58:18Z</time>
      </trkpt>
      <trkpt lat="42.53211" lon="2.04907">
        <ele>1987.4</ele>
        <time>2021-12-29T11:58:28Z</time>
      </trkpt>
      <trkpt lat="42.53178" lon="2.04977">
        <ele>1980.4</ele>
        <time>2021-12-29T11:58:38Z</time>
      </trkpt>
      <trkpt lat="42.53141" lon="2.05035">
        <ele>1971.9</ele>
        <time>2021-12-29T11:58:48Z</time>
      </trkpt>
      <trkpt lat="42.53094" lon="2.05079">
        <ele>1964</ele>
        <time>2021-12-29T11:58:58Z</time>
      </trkpt>
      <trkpt lat="42.53035" lon="2.0513">
        <ele>1957.2</ele>
        <time>2021-12-29T11:59:08Z</time>
      </trkpt>
      <trkpt lat="42.52996" lon="2.05186">
        <ele>1953.8</ele>
        <time>2021-12-29T11:59:18Z</time>
      </trkpt>
      <trkpt lat="42.52954" lon="2.0524">
        <ele>1949.3</ele>
        <time>2021-12-29T11:59:28Z</time>
      </trkpt>
      <trkpt lat="42.52916" lon="2.05285">
        <ele>1946.6</ele>
        <time>2021-12-29T11:59:38Z</time>
      </trkpt>
      <trkpt lat="42.52903" lon="2.05321">
        <ele>1942.2</ele>
        <time>2021-12-29T11:59:48Z</time>
      </trkpt>
      <trkpt lat="42.52898" lon="2.05375">
        <ele>1932.2</ele>
        <time>2021-12-29T11:59:58Z</time>
      </trkpt>
      <trkpt lat="42.5295" lon="2.0542">
        <ele>1916.5</ele>
        <time>2021-12-29T12:00:08Z</time>
      </trkpt>
      <trkpt lat="42.52962" lon="2.05437">
        <ele>1911.7</ele>
        <time>2021-12-29T12:00:28Z</time>
      </trkpt>
      <trkpt lat="42.52996" lon="2.05451">
        <ele>1903.4</ele>
        <time>2021-12-29T12:00:48Z</time>
      </trkpt>
      <trkpt lat="42.53051" lon="2.0549">
        <ele>1889.5</ele>
        <time>2021-12-29T12:00:58Z</time>
      </trkpt>
      <trkpt lat="42.53117" lon="2.05544">
        <ele>1872.1</ele>
        <time>2021-12-29T12:01:08Z</time>
      </trkpt>
      <trkpt lat="42.53168" lon="2.05605">
        <ele>1851.8</ele>
        <time>2021-12-29T12:01:18Z</time>
      </trkpt>
      <trkpt lat="42.53206" lon="2.05634">
        <ele>1844.7</ele>
        <time>2021-12-29T12:01:28Z</time>
      </trkpt>
      <trkpt lat="42.53217" lon="2.05649">
        <ele>1841.5</ele>
        <time>2021-12-29T12:01:38Z</time>
      </trkpt>
      <trkpt lat="42.53264" lon="2.05653">
        <ele>1837.4</ele>
        <time>2021-12-29T12:01:58Z</time>
      </trkpt>
      <trkpt lat="42.5333" lon="2.05649">
        <ele>1828.2</ele>
        <time>2021-12-29T12:02:08Z</time>
      </trkpt>
      <trkpt lat="42.53406" lon="2.05636">
        <ele>1804.7</ele>
        <time>2021-12-29T12:02:18Z</time>
      </trkpt>
      <trkpt lat="42.53453" lon="2.05589">
        <ele>1794.7</ele>
        <time>2021-12-29T12:02:28Z</time>
      </trkpt>
      <trkpt lat="42.53492" lon="2.05543">
        <ele>1786.6</ele>
        <time>2021-12-29T12:02:38Z</time>
      </trkpt>
      <trkpt lat="42.5351" lon="2.05525">
        <ele>1782.8</ele>
        <time>2021-12-29T12:02:48Z</time>
      </trkpt>
      <trkpt lat="42.53533" lon="2.05499">
        <ele>1779.7</ele>
        <time>2021-12-29T12:03:48Z</time>
      </trkpt>
      <trkpt lat="42.53521" lon="2.05478">
        <ele>1782.8</ele>
        <time>2021-12-29T12:04:18Z</time>
      </trkpt>
      <trkpt lat="42.5351" lon="2.05458">
        <ele>1786.2</ele>
        <time>2021-12-29T12:05:08Z</time>
      </trkpt>
      <trkpt lat="42.53498" lon="2.05445">
        <ele>1790.1</ele>
        <time>2021-12-29T12:05:28Z</time>
      </trkpt>
      <trkpt lat="42.53484" lon="2.05428">
        <ele>1797.5</ele>
        <time>2021-12-29T12:05:38Z</time>
      </trkpt>
      <trkpt lat="42.53469" lon="2.05415">
        <ele>1804.9</ele>
        <time>2021-12-29T12:05:48Z</time>
      </trkpt>
      <trkpt lat="42.53461" lon="2.05396">
        <ele>1811.3</ele>
        <time>2021-12-29T12:05:58Z</time>
      </trkpt>
      <trkpt lat="42.53449" lon="2.0538">
        <ele>1819.4</ele>
        <time>2021-12-29T12:06:08Z</time>
      </trkpt>
      <trkpt lat="42.5344" lon="2.05364">
        <ele>1826.4</ele>
        <time>2021-12-29T12:06:18Z</time>
      </trkpt>
      <trkpt lat="42.5343" lon="2.0535">
        <ele>1833.9</ele>
        <time>2021-12-29T12:06:28Z</time>
      </trkpt>
      <trkpt lat="42.5342" lon="2.05334">
        <ele>1842.2</ele>
        <time>2021-12-29T12:06:38Z</time>
      </trkpt>
      <trkpt lat="42.53412" lon="2.05316">
        <ele>1849.2</ele>
        <time>2021-12-29T12:06:48Z</time>
      </trkpt>
      <trkpt lat="42.53397" lon="2.05299">
        <ele>1859.9</ele>
        <time>2021-12-29T12:06:58Z</time>
      </trkpt>
      <trkpt lat="42.53385" lon="2.05284">
        <ele>1868.6</ele>
        <time>2021-12-29T12:07:08Z</time>
      </trkpt>
      <trkpt lat="42.53374" lon="2.0527">
        <ele>1876.5</ele>
        <time>2021-12-29T12:07:18Z</time>
      </trkpt>
      <trkpt lat="42.53361" lon="2.05253">
        <ele>1885.9</ele>
        <time>2021-12-29T12:07:28Z</time>
      </trkpt>
      <trkpt lat="42.53352" lon="2.0524">
        <ele>1891.8</ele>
        <time>2021-12-29T12:07:38Z</time>
      </trkpt>
      <trkpt lat="42.53342" lon="2.05226">
        <ele>1897.8</ele>
        <time>2021-12-29T12:07:48Z</time>
      </trkpt>
      <trkpt lat="42.5333" lon="2.0521">
        <ele>1903.6</ele>
        <time>2021-12-29T12:07:58Z</time>
      </trkpt>
      <trkpt lat="42.53324" lon="2.05198">
        <ele>1905.7</ele>
        <time>2021-12-29T12:08:08Z</time>
      </trkpt>
      <trkpt lat="42.53313" lon="2.05183">
        <ele>1909.6</ele>
        <time>2021-12-29T12:08:38Z</time>
      </trkpt>
      <trkpt lat="42.53304" lon="2.0517">
        <ele>1913.4</ele>
        <time>2021-12-29T12:08:58Z</time>
      </trkpt>
      <trkpt lat="42.53296" lon="2.05156">
        <ele>1918.8</ele>
        <time>2021-12-29T12:09:08Z</time>
      </trkpt>
      <trkpt lat="42.53284" lon="2.05142">
        <ele>1926.4</ele>
        <time>2021-12-29T12:09:18Z</time>
      </trkpt>
      <trkpt lat="42.53274" lon="2.05128">
        <ele>1933.9</ele>
        <time>2021-12-29T12:09:28Z</time>
      </trkpt>
      <trkpt lat="42.53264" lon="2.05115">
        <ele>1941.7</ele>
        <time>2021-12-29T12:09:38Z</time>
      </trkpt>
      <trkpt lat="42.53252" lon="2.05086">
        <ele>1956.2</ele>
        <time>2021-12-29T12:10:38Z</time>
      </trkpt>
      <trkpt lat="42.53244" lon="2.05073">
        <ele>1961.1</ele>
        <time>2021-12-29T12:10:58Z</time>
      </trkpt>
      <trkpt lat="42.53233" lon="2.0506">
        <ele>1965</ele>
        <time>2021-12-29T12:11:08Z</time>
      </trkpt>
      <trkpt lat="42.5322" lon="2.05048">
        <ele>1968.6</ele>
        <time>2021-12-29T12:11:18Z</time>
      </trkpt>
      <trkpt lat="42.53211" lon="2.05033">
        <ele>1972.1</ele>
        <time>2021-12-29T12:11:28Z</time>
      </trkpt>
      <trkpt lat="42.53202" lon="2.05016">
        <ele>1975.5</ele>
        <time>2021-12-29T12:11:38Z</time>
      </trkpt>
      <trkpt lat="42.53191" lon="2.04998">
        <ele>1978.6</ele>
        <time>2021-12-29T12:11:48Z</time>
      </trkpt>
      <trkpt lat="42.53182" lon="2.04987">
        <ele>1979.6</ele>
        <time>2021-12-29T12:11:58Z</time>
      </trkpt>
      <trkpt lat="42.53171" lon="2.0497">
        <ele>1980.8</ele>
        <time>2021-12-29T12:12:08Z</time>
      </trkpt>
      <trkpt lat="42.53159" lon="2.04953">
        <ele>1980.6</ele>
        <time>2021-12-29T12:12:18Z</time>
      </trkpt>
      <trkpt lat="42.53148" lon="2.04932">
        <ele>1979.8</ele>
        <time>2021-12-29T12:12:28Z</time>
      </trkpt>
      <trkpt lat="42.53136" lon="2.04933">
        <ele>1977.7</ele>
        <time>2021-12-29T12:12:38Z</time>
      </trkpt>
      <trkpt lat="42.53145" lon="2.04957">
        <ele>1978.1</ele>
        <time>2021-12-29T12:12:48Z</time>
      </trkpt>
      <trkpt lat="42.5314" lon="2.05002">
        <ele>1975</ele>
        <time>2021-12-29T12:12:58Z</time>
      </trkpt>
      <trkpt lat="42.53134" lon="2.05044">
        <ele>1970.3</ele>
        <time>2021-12-29T12:13:08Z</time>
      </trkpt>
      <trkpt lat="42.53116" lon="2.05074">
        <ele>1966.1</ele>
        <time>2021-12-29T12:13:18Z</time>
      </trkpt>
      <trkpt lat="42.53104" lon="2.05075">
        <ele>1965</ele>
        <time>2021-12-29T12:14:08Z</time>
      </trkpt>
      <trkpt lat="42.53077" lon="2.05093">
        <ele>1961.9</ele>
        <time>2021-12-29T12:14:28Z</time>
      </trkpt>
      <trkpt lat="42.53024" lon="2.05132">
        <ele>1956.3</ele>
        <time>2021-12-29T12:14:38Z</time>
      </trkpt>
      <trkpt lat="42.52995" lon="2.05181">
        <ele>1954.2</ele>
        <time>2021-12-29T12:14:48Z</time>
      </trkpt>
      <trkpt lat="42.52971" lon="2.05219">
        <ele>1950.2</ele>
        <time>2021-12-29T12:14:58Z</time>
      </trkpt>
      <trkpt lat="42.52932" lon="2.05267">
        <ele>1947.7</ele>
        <time>2021-12-29T12:15:08Z</time>
      </trkpt>
      <trkpt lat="42.529" lon="2.05334">
        <ele>1940.9</ele>
        <time>2021-12-29T12:15:18Z</time>
      </trkpt>
      <trkpt lat="42.5291" lon="2.05403">
        <ele>1926.2</ele>
        <time>2021-12-29T12:15:28Z</time>
      </trkpt>
      <trkpt lat="42.52972" lon="2.05428">
        <ele>1911.3</ele>
        <time>2021-12-29T12:15:38Z</time>
      </trkpt>
      <trkpt lat="42.52986" lon="2.05438">
        <ele>1907.2</ele>
        <time>2021-12-29T12:15:58Z</time>
      </trkpt>
      <trkpt lat="42.53033" lon="2.05482">
        <ele>1893.1</ele>
        <time>2021-12-29T12:16:18Z</time>
      </trkpt>
      <trkpt lat="42.53103" lon="2.05527">
        <ele>1877.1</ele>
        <time>2021-12-29T12:16:28Z</time>
      </trkpt>
      <trkpt lat="42.53163" lon="2.05584">
        <ele>1856.5</ele>
        <time>2021-12-29T12:16:38Z</time>
      </trkpt>
      <trkpt lat="42.53212" lon="2.05623">
        <ele>1846.5</ele>
        <time>2021-12-29T12:16:48Z</time>
      </trkpt>
      <trkpt lat="42.53264" lon="2.05629">
        <ele>1841.4</ele>
        <time>2021-12-29T12:16:58Z</time>
      </trkpt>
      <trkpt lat="42.53338" lon="2.05621">
        <ele>1828.8</ele>
        <time>2021-12-29T12:17:08Z</time>
      </trkpt>
      <trkpt lat="42.53431" lon="2.05605">
        <ele>1799.2</ele>
        <time>2021-12-29T12:17:18Z</time>
      </trkpt>
      <trkpt lat="42.53503" lon="2.0553">
        <ele>1783.6</ele>
        <time>2021-12-29T12:17:28Z</time>
      </trkpt>
      <trkpt lat="42.53536" lon="2.05508">
        <ele>1779.3</ele>
        <time>2021-12-29T12:17:48Z</time>
      </trkpt>
      <trkpt lat="42.53531" lon="2.05493">
        <ele>1780.3</ele>
        <time>2021-12-29T12:18:18Z</time>
      </trkpt>
      <trkpt lat="42.53524" lon="2.05484">
        <ele>1781.9</ele>
        <time>2021-12-29T12:18:38Z</time>
      </trkpt>
      <trkpt lat="42.53513" lon="2.05468">
        <ele>1784.9</ele>
        <time>2021-12-29T12:18:48Z</time>
      </trkpt>
      <trkpt lat="42.535" lon="2.05451">
        <ele>1788.7</ele>
        <time>2021-12-29T12:18:58Z</time>
      </trkpt>
      <trkpt lat="42.53488" lon="2.05434">
        <ele>1795.3</ele>
        <time>2021-12-29T12:19:08Z</time>
      </trkpt>
      <trkpt lat="42.53475" lon="2.05417">
        <ele>1802.2</ele>
        <time>2021-12-29T12:19:18Z</time>
      </trkpt>
      <trkpt lat="42.53463" lon="2.05399">
        <ele>1810</ele>
        <time>2021-12-29T12:19:28Z</time>
      </trkpt>
      <trkpt lat="42.53452" lon="2.05383">
        <ele>1817.5</ele>
        <time>2021-12-29T12:19:38Z</time>
      </trkpt>
      <trkpt lat="42.53441" lon="2.05365">
        <ele>1825.8</ele>
        <time>2021-12-29T12:19:48Z</time>
      </trkpt>
      <trkpt lat="42.53429" lon="2.05349">
        <ele>1834.6</ele>
        <time>2021-12-29T12:19:58Z</time>
      </trkpt>
      <trkpt lat="42.53418" lon="2.05333">
        <ele>1843.4</ele>
        <time>2021-12-29T12:20:08Z</time>
      </trkpt>
      <trkpt lat="42.53407" lon="2.05316">
        <ele>1851.9</ele>
        <time>2021-12-29T12:20:18Z</time>
      </trkpt>
      <trkpt lat="42.53396" lon="2.05299">
        <ele>1860.4</ele>
        <time>2021-12-29T12:20:28Z</time>
      </trkpt>
      <trkpt lat="42.53384" lon="2.05283">
        <ele>1869.3</ele>
        <time>2021-12-29T12:20:38Z</time>
      </trkpt>
      <trkpt lat="42.53372" lon="2.05268">
        <ele>1877.9</ele>
        <time>2021-12-29T12:20:48Z</time>
      </trkpt>
      <trkpt lat="42.53362" lon="2.05252">
        <ele>1885.6</ele>
        <time>2021-12-29T12:20:58Z</time>
      </trkpt>
      <trkpt lat="42.53352" lon="2.05236">
        <ele>1892.1</ele>
        <time>2021-12-29T12:21:08Z</time>
      </trkpt>
      <trkpt lat="42.53342" lon="2.05222">
        <ele>1898</ele>
        <time>2021-12-29T12:21:18Z</time>
      </trkpt>
      <trkpt lat="42.53331" lon="2.05206">
        <ele>1903.6</ele>
        <time>2021-12-29T12:21:28Z</time>
      </trkpt>
      <trkpt lat="42.53322" lon="2.0519">
        <ele>1906.7</ele>
        <time>2021-12-29T12:21:38Z</time>
      </trkpt>
      <trkpt lat="42.5331" lon="2.05175">
        <ele>1911.2</ele>
        <time>2021-12-29T12:21:48Z</time>
      </trkpt>
      <trkpt lat="42.533" lon="2.05159">
        <ele>1916.8</ele>
        <time>2021-12-29T12:21:58Z</time>
      </trkpt>
      <trkpt lat="42.53289" lon="2.05143">
        <ele>1924.4</ele>
        <time>2021-12-29T12:22:08Z</time>
      </trkpt>
      <trkpt lat="42.53277" lon="2.05127">
        <ele>1933.1</ele>
        <time>2021-12-29T12:22:18Z</time>
      </trkpt>
      <trkpt lat="42.53267" lon="2.05111">
        <ele>1941.7</ele>
        <time>2021-12-29T12:22:28Z</time>
      </trkpt>
      <trkpt lat="42.53256" lon="2.05095">
        <ele>1951.4</ele>
        <time>2021-12-29T12:22:38Z</time>
      </trkpt>
      <trkpt lat="42.53245" lon="2.05079">
        <ele>1959.6</ele>
        <time>2021-12-29T12:22:48Z</time>
      </trkpt>
      <trkpt lat="42.53235" lon="2.05063">
        <ele>1964.2</ele>
        <time>2021-12-29T12:22:58Z</time>
      </trkpt>
      <trkpt lat="42.53225" lon="2.05048">
        <ele>1968.2</ele>
        <time>2021-12-29T12:23:08Z</time>
      </trkpt>
      <trkpt lat="42.53215" lon="2.05033">
        <ele>1971.8</ele>
        <time>2021-12-29T12:23:18Z</time>
      </trkpt>
      <trkpt lat="42.53207" lon="2.05016">
        <ele>1975.3</ele>
        <time>2021-12-29T12:23:28Z</time>
      </trkpt>
      <trkpt lat="42.53198" lon="2.05001">
        <ele>1978.1</ele>
        <time>2021-12-29T12:23:38Z</time>
      </trkpt>
      <trkpt lat="42.53187" lon="2.04986">
        <ele>1979.6</ele>
        <time>2021-12-29T12:23:48Z</time>
      </trkpt>
      <trkpt lat="42.53176" lon="2.04971">
        <ele>1980.8</ele>
        <time>2021-12-29T12:23:58Z</time>
      </trkpt>
      <trkpt lat="42.53165" lon="2.0496">
        <ele>1981.1</ele>
        <time>2021-12-29T12:24:08Z</time>
      </trkpt>
      <trkpt lat="42.53154" lon="2.04947">
        <ele>1980.1</ele>
        <time>2021-12-29T12:24:18Z</time>
      </trkpt>
      <trkpt lat="42.53141" lon="2.04942">
        <ele>1978.1</ele>
        <time>2021-12-29T12:24:28Z</time>
      </trkpt>
      <trkpt lat="42.53138" lon="2.05005">
        <ele>1974.4</ele>
        <time>2021-12-29T12:24:38Z</time>
      </trkpt>
      <trkpt lat="42.53108" lon="2.05067">
        <ele>1965.9</ele>
        <time>2021-12-29T12:24:48Z</time>
      </trkpt>
      <trkpt lat="42.53099" lon="2.05076">
        <ele>1964.6</ele>
        <time>2021-12-29T12:24:58Z</time>
      </trkpt>
      <trkpt lat="42.53063" lon="2.05104">
        <ele>1960</ele>
        <time>2021-12-29T12:25:08Z</time>
      </trkpt>
      <trkpt lat="42.53006" lon="2.05158">
        <ele>1955.9</ele>
        <time>2021-12-29T12:25:18Z</time>
      </trkpt>
      <trkpt lat="42.52965" lon="2.05223">
        <ele>1949.9</ele>
        <time>2021-12-29T12:25:28Z</time>
      </trkpt>
      <trkpt lat="42.52911" lon="2.05277">
        <ele>1946.8</ele>
        <time>2021-12-29T12:25:38Z</time>
      </trkpt>
      <trkpt lat="42.52869" lon="2.05374">
        <ele>1931.8</ele>
        <time>2021-12-29T12:25:48Z</time>
      </trkpt>
      <trkpt lat="42.52814" lon="2.05444">
        <ele>1921.1</ele>
        <time>2021-12-29T12:25:58Z</time>
      </trkpt>
      <trkpt lat="42.52767" lon="2.05498">
        <ele>1912.8</ele>
        <time>2021-12-29T12:26:08Z</time>
      </trkpt>
      <trkpt lat="42.52717" lon="2.05548">
        <ele>1908.2</ele>
        <time>2021-12-29T12:26:18Z</time>
      </trkpt>
      <trkpt lat="42.52669" lon="2.05605">
        <ele>1898.8</ele>
        <time>2021-12-29T12:26:28Z</time>
      </trkpt>
      <trkpt lat="42.52626" lon="2.05615">
        <ele>1894.2</ele>
        <time>2021-12-29T12:26:38Z</time>
      </trkpt>
      <trkpt lat="42.52583" lon="2.05619">
        <ele>1890.4</ele>
        <time>2021-12-29T12:26:48Z</time>
      </trkpt>
      <trkpt lat="42.52555" lon="2.05622">
        <ele>1885.6</ele>
        <time>2021-12-29T12:26:58Z</time>
      </trkpt>
      <trkpt lat="42.52505" lon="2.05628">
        <ele>1877.2</ele>
        <time>2021-12-29T12:27:08Z</time>
      </trkpt>
      <trkpt lat="42.52468" lon="2.0564">
        <ele>1867.9</ele>
        <time>2021-12-29T12:27:38Z</time>
      </trkpt>
      <trkpt lat="42.52417" lon="2.05719">
        <ele>1844.2</ele>
        <time>2021-12-29T12:27:58Z</time>
      </trkpt>
      <trkpt lat="42.52408" lon="2.05801">
        <ele>1829</ele>
        <time>2021-12-29T12:28:08Z</time>
      </trkpt>
      <trkpt lat="42.52348" lon="2.05877">
        <ele>1808.5</ele>
        <time>2021-12-29T12:28:18Z</time>
      </trkpt>
      <trkpt lat="42.52257" lon="2.05931">
        <ele>1788.9</ele>
        <time>2021-12-29T12:28:28Z</time>
      </trkpt>
      <trkpt lat="42.52191" lon="2.05956">
        <ele>1781.8</ele>
        <time>2021-12-29T12:28:38Z</time>
      </trkpt>
      <trkpt lat="42.52166" lon="2.05982">
        <ele>1779.8</ele>
        <time>2021-12-29T12:28:48Z</time>
      </trkpt>
      <trkpt lat="42.52151" lon="2.06006">
        <ele>1779.6</ele>
        <time>2021-12-29T12:28:58Z</time>
      </trkpt>
      <trkpt lat="42.52139" lon="2.06007">
        <ele>1779.3</ele>
        <time>2021-12-29T12:29:18Z</time>
      </trkpt>
      <trkpt lat="42.52148" lon="2.05999">
        <ele>1779.6</ele>
        <time>2021-12-29T12:30:28Z</time>
      </trkpt>
      <trkpt lat="42.52161" lon="2.05982">
        <ele>1779.7</ele>
        <time>2021-12-29T12:30:48Z</time>
      </trkpt>
      <trkpt lat="42.52182" lon="2.05947">
        <ele>1780.9</ele>
        <time>2021-12-29T12:30:58Z</time>
      </trkpt>
      <trkpt lat="42.52206" lon="2.05913">
        <ele>1783.7</ele>
        <time>2021-12-29T12:31:08Z</time>
      </trkpt>
      <trkpt lat="42.52229" lon="2.05881">
        <ele>1790.3</ele>
        <time>2021-12-29T12:31:18Z</time>
      </trkpt>
      <trkpt lat="42.52253" lon="2.05847">
        <ele>1798.5</ele>
        <time>2021-12-29T12:31:28Z</time>
      </trkpt>
      <trkpt lat="42.52274" lon="2.05815">
        <ele>1807.3</ele>
        <time>2021-12-29T12:31:38Z</time>
      </trkpt>
      <trkpt lat="42.523" lon="2.05781">
        <ele>1817.3</ele>
        <time>2021-12-29T12:31:48Z</time>
      </trkpt>
      <trkpt lat="42.52325" lon="2.05747">
        <ele>1826.5</ele>
        <time>2021-12-29T12:31:58Z</time>
      </trkpt>
      <trkpt lat="42.52347" lon="2.05715">
        <ele>1834.1</ele>
        <time>2021-12-29T12:32:08Z</time>
      </trkpt>
      <trkpt lat="42.52372" lon="2.05681">
        <ele>1842.6</ele>
        <time>2021-12-29T12:32:18Z</time>
      </trkpt>
      <trkpt lat="42.52395" lon="2.05649">
        <ele>1852.1</ele>
        <time>2021-12-29T12:32:28Z</time>
      </trkpt>
      <trkpt lat="42.52417" lon="2.05618">
        <ele>1862.7</ele>
        <time>2021-12-29T12:32:38Z</time>
      </trkpt>
      <trkpt lat="42.5244" lon="2.05586">
        <ele>1874.1</ele>
        <time>2021-12-29T12:32:48Z</time>
      </trkpt>
      <trkpt lat="42.52462" lon="2.05554">
        <ele>1886.5</ele>
        <time>2021-12-29T12:32:58Z</time>
      </trkpt>
      <trkpt lat="42.52483" lon="2.05523">
        <ele>1897.9</ele>
        <time>2021-12-29T12:33:08Z</time>
      </trkpt>
      <trkpt lat="42.52507" lon="2.0549">
        <ele>1908.7</ele>
        <time>2021-12-29T12:33:18Z</time>
      </trkpt>
      <trkpt lat="42.52551" lon="2.05439">
        <ele>1927</ele>
        <time>2021-12-29T12:33:38Z</time>
      </trkpt>
      <trkpt lat="42.52586" lon="2.05392">
        <ele>1940.2</ele>
        <time>2021-12-29T12:33:48Z</time>
      </trkpt>
      <trkpt lat="42.52614" lon="2.05356">
        <ele>1942.8</ele>
        <time>2021-12-29T12:33:58Z</time>
      </trkpt>
      <trkpt lat="42.52638" lon="2.05323">
        <ele>1943.3</ele>
        <time>2021-12-29T12:34:08Z</time>
      </trkpt>
      <trkpt lat="42.52661" lon="2.05291">
        <ele>1939.4</ele>
        <time>2021-12-29T12:34:18Z</time>
      </trkpt>
      <trkpt lat="42.52684" lon="2.05259">
        <ele>1933.9</ele>
        <time>2021-12-29T12:34:28Z</time>
      </trkpt>
      <trkpt lat="42.52708" lon="2.05226">
        <ele>1929.2</ele>
        <time>2021-12-29T12:34:38Z</time>
      </trkpt>
      <trkpt lat="42.52732" lon="2.05192">
        <ele>1926.9</ele>
        <time>2021-12-29T12:34:48Z</time>
      </trkpt>
      <trkpt lat="42.52759" lon="2.05156">
        <ele>1927.7</ele>
        <time>2021-12-29T12:34:58Z</time>
      </trkpt>
      <trkpt lat="42.52787" lon="2.0512">
        <ele>1929.6</ele>
        <time>2021-12-29T12:35:08Z</time>
      </trkpt>
      <trkpt lat="42.52814" lon="2.05085">
        <ele>1931.2</ele>
        <time>2021-12-29T12:35:18Z</time>
      </trkpt>
      <trkpt lat="42.52841" lon="2.0505">
        <ele>1934</ele>
        <time>2021-12-29T12:35:28Z</time>
      </trkpt>
      <trkpt lat="42.52865" lon="2.05018">
        <ele>1936.1</ele>
        <time>2021-12-29T12:35:38Z</time>
      </trkpt>
      <trkpt lat="42.52892" lon="2.04982">
        <ele>1939.3</ele>
        <time>2021-12-29T12:35:48Z</time>
      </trkpt>
      <trkpt lat="42.52921" lon="2.04947">
        <ele>1942.4</ele>
        <time>2021-12-29T12:35:58Z</time>
      </trkpt>
      <trkpt lat="42.52947" lon="2.04913">
        <ele>1946.5</ele>
        <time>2021-12-29T12:36:08Z</time>
      </trkpt>
      <trkpt lat="42.52973" lon="2.0488">
        <ele>1951.3</ele>
        <time>2021-12-29T12:36:18Z</time>
      </trkpt>
      <trkpt lat="42.53001" lon="2.04846">
        <ele>1955.6</ele>
        <time>2021-12-29T12:36:28Z</time>
      </trkpt>
      <trkpt lat="42.53026" lon="2.04813">
        <ele>1961</ele>
        <time>2021-12-29T12:36:38Z</time>
      </trkpt>
      <trkpt lat="42.5305" lon="2.04782">
        <ele>1965.5</ele>
        <time>2021-12-29T12:36:48Z</time>
      </trkpt>
      <trkpt lat="42.53078" lon="2.04747">
        <ele>1970.2</ele>
        <time>2021-12-29T12:36:58Z</time>
      </trkpt>
      <trkpt lat="42.53104" lon="2.0471">
        <ele>1974.1</ele>
        <time>2021-12-29T12:37:08Z</time>
      </trkpt>
      <trkpt lat="42.53131" lon="2.04676">
        <ele>1977.9</ele>
        <time>2021-12-29T12:37:18Z</time>
      </trkpt>
      <trkpt lat="42.53157" lon="2.04639">
        <ele>1980.6</ele>
        <time>2021-12-29T12:37:28Z</time>
      </trkpt>
      <trkpt lat="42.53183" lon="2.04605">
        <ele>1983.1</ele>
        <time>2021-12-29T12:37:38Z</time>
      </trkpt>
      <trkpt lat="42.53208" lon="2.04571">
        <ele>1986.1</ele>
        <time>2021-12-29T12:37:48Z</time>
      </trkpt>
      <trkpt lat="42.53232" lon="2.04539">
        <ele>1989.7</ele>
        <time>2021-12-29T12:37:58Z</time>
      </trkpt>
      <trkpt lat="42.53261" lon="2.045">
        <ele>1994.6</ele>
        <time>2021-12-29T12:38:08Z</time>
      </trkpt>
      <trkpt lat="42.53288" lon="2.04464">
        <ele>1996.9</ele>
        <time>2021-12-29T12:38:18Z</time>
      </trkpt>
      <trkpt lat="42.53314" lon="2.04431">
        <ele>1999.5</ele>
        <time>2021-12-29T12:38:28Z</time>
      </trkpt>
      <trkpt lat="42.5334" lon="2.04394">
        <ele>2001.5</ele>
        <time>2021-12-29T12:38:38Z</time>
      </trkpt>
      <trkpt lat="42.53365" lon="2.0436">
        <ele>2001.2</ele>
        <time>2021-12-29T12:38:48Z</time>
      </trkpt>
      <trkpt lat="42.53392" lon="2.04325">
        <ele>2001.5</ele>
        <time>2021-12-29T12:38:58Z</time>
      </trkpt>
      <trkpt lat="42.53417" lon="2.04297">
        <ele>2002</ele>
        <time>2021-12-29T12:39:08Z</time>
      </trkpt>
      <trkpt lat="42.53433" lon="2.04279">
        <ele>2002.4</ele>
        <time>2021-12-29T12:39:18Z</time>
      </trkpt>
      <trkpt lat="42.5344" lon="2.04257">
        <ele>2002.4</ele>
        <time>2021-12-29T12:39:28Z</time>
      </trkpt>
      <trkpt lat="42.5345" lon="2.04242">
        <ele>2002.9</ele>
        <time>2021-12-29T12:39:38Z</time>
      </trkpt>
      <trkpt lat="42.53455" lon="2.04233">
        <ele>2003.4</ele>
        <time>2021-12-29T12:39:48Z</time>
      </trkpt>
      <trkpt lat="42.5346" lon="2.04219">
        <ele>2004.2</ele>
        <time>2021-12-29T12:39:58Z</time>
      </trkpt>
      <trkpt lat="42.53466" lon="2.04206">
        <ele>2004.7</ele>
        <time>2021-12-29T12:40:08Z</time>
      </trkpt>
      <trkpt lat="42.53469" lon="2.0419">
        <ele>2005.4</ele>
        <time>2021-12-29T12:40:18Z</time>
      </trkpt>
      <trkpt lat="42.53474" lon="2.0417">
        <ele>2006.1</ele>
        <time>2021-12-29T12:40:28Z</time>
      </trkpt>
      <trkpt lat="42.53482" lon="2.04146">
        <ele>2008.1</ele>
        <time>2021-12-29T12:40:38Z</time>
      </trkpt>
      <trkpt lat="42.53495" lon="2.04132">
        <ele>2009</ele>
        <time>2021-12-29T12:40:48Z</time>
      </trkpt>
      <trkpt lat="42.53503" lon="2.04108">
        <ele>2010.9</ele>
        <time>2021-12-29T12:40:58Z</time>
      </trkpt>
      <trkpt lat="42.53519" lon="2.04099">
        <ele>2009.6</ele>
        <time>2021-12-29T12:41:18Z</time>
      </trkpt>
      <trkpt lat="42.53561" lon="2.04019">
        <ele>2012</ele>
        <time>2021-12-29T12:41:38Z</time>
      </trkpt>
      <trkpt lat="42.53614" lon="2.03926">
        <ele>2006.5</ele>
        <time>2021-12-29T12:41:48Z</time>
      </trkpt>
      <trkpt lat="42.53676" lon="2.03877">
        <ele>1989.3</ele>
        <time>2021-12-29T12:41:58Z</time>
      </trkpt>
      <trkpt lat="42.5372" lon="2.03802">
        <ele>1975</ele>
        <time>2021-12-29T12:42:08Z</time>
      </trkpt>
      <trkpt lat="42.53766" lon="2.03766">
        <ele>1956.9</ele>
        <time>2021-12-29T12:42:18Z</time>
      </trkpt>
      <trkpt lat="42.53808" lon="2.03762">
        <ele>1943.5</ele>
        <time>2021-12-29T12:43:08Z</time>
      </trkpt>
      <trkpt lat="42.53854" lon="2.0372">
        <ele>1931.8</ele>
        <time>2021-12-29T12:43:28Z</time>
      </trkpt>
      <trkpt lat="42.53902" lon="2.03663">
        <ele>1923.3</ele>
        <time>2021-12-29T12:43:38Z</time>
      </trkpt>
      <trkpt lat="42.53938" lon="2.03615">
        <ele>1916.6</ele>
        <time>2021-12-29T12:43:48Z</time>
      </trkpt>
      <trkpt lat="42.53969" lon="2.03606">
        <ele>1910.4</ele>
        <time>2021-12-29T12:43:58Z</time>
      </trkpt>
      <trkpt lat="42.54011" lon="2.03589">
        <ele>1903.6</ele>
        <time>2021-12-29T12:44:18Z</time>
      </trkpt>
      <trkpt lat="42.54055" lon="2.03656">
        <ele>1887.5</ele>
        <time>2021-12-29T12:44:28Z</time>
      </trkpt>
      <trkpt lat="42.54085" lon="2.03705">
        <ele>1877.7</ele>
        <time>2021-12-29T12:44:38Z</time>
      </trkpt>
      <trkpt lat="42.54134" lon="2.03708">
        <ele>1864.4</ele>
        <time>2021-12-29T12:44:48Z</time>
      </trkpt>
      <trkpt lat="42.54182" lon="2.03715">
        <ele>1849.5</ele>
        <time>2021-12-29T12:45:18Z</time>
      </trkpt>
      <trkpt lat="42.54231" lon="2.03718">
        <ele>1832.5</ele>
        <time>2021-12-29T12:45:38Z</time>
      </trkpt>
      <trkpt lat="42.5428" lon="2.03745">
        <ele>1808.5</ele>
        <time>2021-12-29T12:45:48Z</time>
      </trkpt>
      <trkpt lat="42.54285" lon="2.0375">
        <ele>1805.8</ele>
        <time>2021-12-29T12:45:58Z</time>
      </trkpt>
      <trkpt lat="42.54293" lon="2.03763">
        <ele>1801.5</ele>
        <time>2021-12-29T12:46:08Z</time>
      </trkpt>
      <trkpt lat="42.54318" lon="2.03787">
        <ele>1788.5</ele>
        <time>2021-12-29T12:46:28Z</time>
      </trkpt>
      <trkpt lat="42.54362" lon="2.03871">
        <ele>1756.4</ele>
        <time>2021-12-29T12:46:38Z</time>
      </trkpt>
      <trkpt lat="42.54388" lon="2.03971">
        <ele>1734.8</ele>
        <time>2021-12-29T12:46:48Z</time>
      </trkpt>
      <trkpt lat="42.54406" lon="2.03979">
        <ele>1728.3</ele>
        <time>2021-12-29T12:46:58Z</time>
      </trkpt>
      <trkpt lat="42.54397" lon="2.03952">
        <ele>1733.4</ele>
        <time>2021-12-29T12:54:48Z</time>
      </trkpt>
      <trkpt lat="42.54359" lon="2.03927">
        <ele>1747.3</ele>
        <time>2021-12-29T12:55:08Z</time>
      </trkpt>
      <trkpt lat="42.54325" lon="2.03907">
        <ele>1762.5</ele>
        <time>2021-12-29T12:55:18Z</time>
      </trkpt>
      <trkpt lat="42.54291" lon="2.03891">
        <ele>1783.5</ele>
        <time>2021-12-29T12:55:28Z</time>
      </trkpt>
      <trkpt lat="42.5427" lon="2.03868">
        <ele>1798</ele>
        <time>2021-12-29T12:55:38Z</time>
      </trkpt>
      <trkpt lat="42.54241" lon="2.03849">
        <ele>1814.7</ele>
        <time>2021-12-29T12:55:48Z</time>
      </trkpt>
      <trkpt lat="42.54215" lon="2.03827">
        <ele>1828.4</ele>
        <time>2021-12-29T12:55:58Z</time>
      </trkpt>
      <trkpt lat="42.54182" lon="2.0381">
        <ele>1842.9</ele>
        <time>2021-12-29T12:56:08Z</time>
      </trkpt>
      <trkpt lat="42.54145" lon="2.03794">
        <ele>1856.2</ele>
        <time>2021-12-29T12:56:18Z</time>
      </trkpt>
      <trkpt lat="42.54115" lon="2.03772">
        <ele>1865.9</ele>
        <time>2021-12-29T12:56:28Z</time>
      </trkpt>
      <trkpt lat="42.54087" lon="2.03748">
        <ele>1875</ele>
        <time>2021-12-29T12:56:38Z</time>
      </trkpt>
      <trkpt lat="42.54057" lon="2.03729">
        <ele>1884.6</ele>
        <time>2021-12-29T12:56:48Z</time>
      </trkpt>
      <trkpt lat="42.54031" lon="2.03709">
        <ele>1891.8</ele>
        <time>2021-12-29T12:56:58Z</time>
      </trkpt>
      <trkpt lat="42.54001" lon="2.03685">
        <ele>1898.6</ele>
        <time>2021-12-29T12:57:08Z</time>
      </trkpt>
      <trkpt lat="42.53967" lon="2.03669">
        <ele>1906.8</ele>
        <time>2021-12-29T12:57:18Z</time>
      </trkpt>
      <trkpt lat="42.5394" lon="2.0365">
        <ele>1914.6</ele>
        <time>2021-12-29T12:57:28Z</time>
      </trkpt>
      <trkpt lat="42.5391" lon="2.0364">
        <ele>1922.1</ele>
        <time>2021-12-29T12:57:38Z</time>
      </trkpt>
      <trkpt lat="42.5388" lon="2.03619">
        <ele>1929.1</ele>
        <time>2021-12-29T12:57:48Z</time>
      </trkpt>
      <trkpt lat="42.53853" lon="2.03593">
        <ele>1935.5</ele>
        <time>2021-12-29T12:57:58Z</time>
      </trkpt>
      <trkpt lat="42.53824" lon="2.03571">
        <ele>1945.8</ele>
        <time>2021-12-29T12:58:08Z</time>
      </trkpt>
      <trkpt lat="42.53792" lon="2.03547">
        <ele>1964.7</ele>
        <time>2021-12-29T12:58:18Z</time>
      </trkpt>
      <trkpt lat="42.5376" lon="2.03528">
        <ele>1983.3</ele>
        <time>2021-12-29T12:58:28Z</time>
      </trkpt>
      <trkpt lat="42.53727" lon="2.03509">
        <ele>2004.1</ele>
        <time>2021-12-29T12:58:38Z</time>
      </trkpt>
      <trkpt lat="42.53695" lon="2.03493">
        <ele>2024.5</ele>
        <time>2021-12-29T12:58:48Z</time>
      </trkpt>
      <trkpt lat="42.53668" lon="2.03473">
        <ele>2041.8</ele>
        <time>2021-12-29T12:58:58Z</time>
      </trkpt>
      <trkpt lat="42.53642" lon="2.03455">
        <ele>2050.5</ele>
        <time>2021-12-29T12:59:08Z</time>
      </trkpt>
      <trkpt lat="42.53616" lon="2.03436">
        <ele>2058.8</ele>
        <time>2021-12-29T12:59:18Z</time>
      </trkpt>
      <trkpt lat="42.53588" lon="2.03414">
        <ele>2067.8</ele>
        <time>2021-12-29T12:59:28Z</time>
      </trkpt>
      <trkpt lat="42.53558" lon="2.03393">
        <ele>2074</ele>
        <time>2021-12-29T12:59:38Z</time>
      </trkpt>
      <trkpt lat="42.53524" lon="2.03374">
        <ele>2080.3</ele>
        <time>2021-12-29T12:59:48Z</time>
      </trkpt>
      <trkpt lat="42.53493" lon="2.03353">
        <ele>2086</ele>
        <time>2021-12-29T12:59:58Z</time>
      </trkpt>
      <trkpt lat="42.53462" lon="2.03333">
        <ele>2092.3</ele>
        <time>2021-12-29T13:00:08Z</time>
      </trkpt>
      <trkpt lat="42.53432" lon="2.03312">
        <ele>2099.3</ele>
        <time>2021-12-29T13:00:18Z</time>
      </trkpt>
      <trkpt lat="42.534" lon="2.03293">
        <ele>2105.9</ele>
        <time>2021-12-29T13:00:28Z</time>
      </trkpt>
      <trkpt lat="42.53371" lon="2.0327">
        <ele>2111.5</ele>
        <time>2021-12-29T13:00:38Z</time>
      </trkpt>
      <trkpt lat="42.53341" lon="2.0325">
        <ele>2116.9</ele>
        <time>2021-12-29T13:00:48Z</time>
      </trkpt>
      <trkpt lat="42.5331" lon="2.0323">
        <ele>2120.3</ele>
        <time>2021-12-29T13:00:58Z</time>
      </trkpt>
      <trkpt lat="42.5328" lon="2.03209">
        <ele>2122.9</ele>
        <time>2021-12-29T13:01:08Z</time>
      </trkpt>
      <trkpt lat="42.53249" lon="2.03189">
        <ele>2125.3</ele>
        <time>2021-12-29T13:01:18Z</time>
      </trkpt>
      <trkpt lat="42.53219" lon="2.03166">
        <ele>2123.3</ele>
        <time>2021-12-29T13:01:28Z</time>
      </trkpt>
      <trkpt lat="42.53197" lon="2.03152">
        <ele>2120.6</ele>
        <time>2021-12-29T13:01:38Z</time>
      </trkpt>
      <trkpt lat="42.53179" lon="2.03129">
        <ele>2118.4</ele>
        <time>2021-12-29T13:01:48Z</time>
      </trkpt>
      <trkpt lat="42.53169" lon="2.03107">
        <ele>2117.3</ele>
        <time>2021-12-29T13:01:58Z</time>
      </trkpt>
      <trkpt lat="42.53119" lon="2.03082">
        <ele>2109.5</ele>
        <time>2021-12-29T13:02:28Z</time>
      </trkpt>
      <trkpt lat="42.53054" lon="2.03076">
        <ele>2097.7</ele>
        <time>2021-12-29T13:02:48Z</time>
      </trkpt>
      <trkpt lat="42.52996" lon="2.03057">
        <ele>2085.6</ele>
        <time>2021-12-29T13:02:58Z</time>
      </trkpt>
      <trkpt lat="42.52933" lon="2.03081">
        <ele>2074</ele>
        <time>2021-12-29T13:03:08Z</time>
      </trkpt>
      <trkpt lat="42.52864" lon="2.03095">
        <ele>2062.8</ele>
        <time>2021-12-29T13:03:18Z</time>
      </trkpt>
      <trkpt lat="42.528" lon="2.03136">
        <ele>2053.7</ele>
        <time>2021-12-29T13:03:28Z</time>
      </trkpt>
      <trkpt lat="42.52776" lon="2.03196">
        <ele>2049.7</ele>
        <time>2021-12-29T13:03:38Z</time>
      </trkpt>
      <trkpt lat="42.52742" lon="2.03185">
        <ele>2045.2</ele>
        <time>2021-12-29T13:03:48Z</time>
      </trkpt>
      <trkpt lat="42.52663" lon="2.03209">
        <ele>2032.4</ele>
        <time>2021-12-29T13:04:08Z</time>
      </trkpt>
      <trkpt lat="42.52585" lon="2.03245">
        <ele>2017.6</ele>
        <time>2021-12-29T13:04:18Z</time>
      </trkpt>
      <trkpt lat="42.52526" lon="2.03283">
        <ele>2004.5</ele>
        <time>2021-12-29T13:04:28Z</time>
      </trkpt>
      <trkpt lat="42.52462" lon="2.03315">
        <ele>1989.8</ele>
        <time>2021-12-29T13:04:38Z</time>
      </trkpt>
      <trkpt lat="42.52388" lon="2.03336">
        <ele>1972.8</ele>
        <time>2021-12-29T13:04:48Z</time>
      </trkpt>
      <trkpt lat="42.52309" lon="2.03366">
        <ele>1958.9</ele>
        <time>2021-12-29T13:04:58Z</time>
      </trkpt>
      <trkpt lat="42.52217" lon="2.03426">
        <ele>1947.5</ele>
        <time>2021-12-29T13:05:08Z</time>
      </trkpt>
      <trkpt lat="42.5218" lon="2.03454">
        <ele>1944.5</ele>
        <time>2021-12-29T13:05:18Z</time>
      </trkpt>
      <trkpt lat="42.52134" lon="2.03471">
        <ele>1945.2</ele>
        <time>2021-12-29T13:05:38Z</time>
      </trkpt>
      <trkpt lat="42.52132" lon="2.03516">
        <ele>1943.8</ele>
        <time>2021-12-29T13:05:58Z</time>
      </trkpt>
      <trkpt lat="42.5213" lon="2.03555">
        <ele>1941.8</ele>
        <time>2021-12-29T13:10:38Z</time>
      </trkpt>
      <trkpt lat="42.52145" lon="2.03548">
        <ele>1941.6</ele>
        <time>2021-12-29T13:10:58Z</time>
      </trkpt>
      <trkpt lat="42.52169" lon="2.03533">
        <ele>1941.6</ele>
        <time>2021-12-29T13:11:18Z</time>
      </trkpt>
      <trkpt lat="42.52187" lon="2.03523">
        <ele>1943.3</ele>
        <time>2021-12-29T13:11:28Z</time>
      </trkpt>
      <trkpt lat="42.5221" lon="2.03512">
        <ele>1945.5</ele>
        <time>2021-12-29T13:11:38Z</time>
      </trkpt>
      <trkpt lat="42.52237" lon="2.035">
        <ele>1948.1</ele>
        <time>2021-12-29T13:11:48Z</time>
      </trkpt>
      <trkpt lat="42.52265" lon="2.03488">
        <ele>1951.1</ele>
        <time>2021-12-29T13:11:58Z</time>
      </trkpt>
      <trkpt lat="42.52291" lon="2.03476">
        <ele>1954.6</ele>
        <time>2021-12-29T13:12:08Z</time>
      </trkpt>
      <trkpt lat="42.52321" lon="2.03466">
        <ele>1958.4</ele>
        <time>2021-12-29T13:12:18Z</time>
      </trkpt>
      <trkpt lat="42.52352" lon="2.03454">
        <ele>1964</ele>
        <time>2021-12-29T13:12:28Z</time>
      </trkpt>
      <trkpt lat="42.5238" lon="2.03441">
        <ele>1970.1</ele>
        <time>2021-12-29T13:12:38Z</time>
      </trkpt>
      <trkpt lat="42.52404" lon="2.03431">
        <ele>1975.7</ele>
        <time>2021-12-29T13:12:48Z</time>
      </trkpt>
      <trkpt lat="42.52433" lon="2.03418">
        <ele>1983.1</ele>
        <time>2021-12-29T13:12:58Z</time>
      </trkpt>
      <trkpt lat="42.52464" lon="2.03407">
        <ele>1990.7</ele>
        <time>2021-12-29T13:13:08Z</time>
      </trkpt>
      <trkpt lat="42.52495" lon="2.03395">
        <ele>1998.2</ele>
        <time>2021-12-29T13:13:18Z</time>
      </trkpt>
      <trkpt lat="42.5252" lon="2.03382">
        <ele>2003.1</ele>
        <time>2021-12-29T13:13:28Z</time>
      </trkpt>
      <trkpt lat="42.5255" lon="2.03369">
        <ele>2008.8</ele>
        <time>2021-12-29T13:13:38Z</time>
      </trkpt>
      <trkpt lat="42.52578" lon="2.03358">
        <ele>2014.2</ele>
        <time>2021-12-29T13:13:48Z</time>
      </trkpt>
      <trkpt lat="42.52606" lon="2.03346">
        <ele>2018.4</ele>
        <time>2021-12-29T13:13:58Z</time>
      </trkpt>
      <trkpt lat="42.52637" lon="2.03333">
        <ele>2022.7</ele>
        <time>2021-12-29T13:14:08Z</time>
      </trkpt>
      <trkpt lat="42.52664" lon="2.03321">
        <ele>2027.2</ele>
        <time>2021-12-29T13:14:18Z</time>
      </trkpt>
      <trkpt lat="42.52693" lon="2.03308">
        <ele>2033</ele>
        <time>2021-12-29T13:14:28Z</time>
      </trkpt>
      <trkpt lat="42.5272" lon="2.03295">
        <ele>2038.2</ele>
        <time>2021-12-29T13:14:38Z</time>
      </trkpt>
      <trkpt lat="42.52749" lon="2.03283">
        <ele>2043.4</ele>
        <time>2021-12-29T13:14:48Z</time>
      </trkpt>
      <trkpt lat="42.52778" lon="2.03269">
        <ele>2048.5</ele>
        <time>2021-12-29T13:14:58Z</time>
      </trkpt>
      <trkpt lat="42.52805" lon="2.03258">
        <ele>2053.1</ele>
        <time>2021-12-29T13:15:08Z</time>
      </trkpt>
      <trkpt lat="42.52834" lon="2.03246">
        <ele>2058.1</ele>
        <time>2021-12-29T13:15:18Z</time>
      </trkpt>
      <trkpt lat="42.52863" lon="2.03234">
        <ele>2062.7</ele>
        <time>2021-12-29T13:15:28Z</time>
      </trkpt>
      <trkpt lat="42.52889" lon="2.03222">
        <ele>2066.9</ele>
        <time>2021-12-29T13:15:38Z</time>
      </trkpt>
      <trkpt lat="42.52915" lon="2.03209">
        <ele>2071.2</ele>
        <time>2021-12-29T13:15:48Z</time>
      </trkpt>
      <trkpt lat="42.52942" lon="2.03195">
        <ele>2076.1</ele>
        <time>2021-12-29T13:15:58Z</time>
      </trkpt>
      <trkpt lat="42.5297" lon="2.03183">
        <ele>2081.3</ele>
        <time>2021-12-29T13:16:08Z</time>
      </trkpt>
      <trkpt lat="42.52998" lon="2.03171">
        <ele>2086.5</ele>
        <time>2021-12-29T13:16:18Z</time>
      </trkpt>
      <trkpt lat="42.53029" lon="2.03159">
        <ele>2092.9</ele>
        <time>2021-12-29T13:16:28Z</time>
      </trkpt>
      <trkpt lat="42.53054" lon="2.03148">
        <ele>2098</ele>
        <time>2021-12-29T13:16:38Z</time>
      </trkpt>
      <trkpt lat="42.53085" lon="2.03136">
        <ele>2104.3</ele>
        <time>2021-12-29T13:16:48Z</time>
      </trkpt>
      <trkpt lat="42.53113" lon="2.03124">
        <ele>2108.6</ele>
        <time>2021-12-29T13:16:58Z</time>
      </trkpt>
      <trkpt lat="42.53143" lon="2.03109">
        <ele>2113.3</ele>
        <time>2021-12-29T13:17:08Z</time>
      </trkpt>
      <trkpt lat="42.53165" lon="2.03107">
        <ele>2116.7</ele>
        <time>2021-12-29T13:18:58Z</time>
      </trkpt>
      <trkpt lat="42.53182" lon="2.03118">
        <ele>2118.7</ele>
        <time>2021-12-29T13:19:18Z</time>
      </trkpt>
      <trkpt lat="42.53197" lon="2.03128">
        <ele>2120.5</ele>
        <time>2021-12-29T13:19:28Z</time>
      </trkpt>
      <trkpt lat="42.5323" lon="2.03143">
        <ele>2124.4</ele>
        <time>2021-12-29T13:19:38Z</time>
      </trkpt>
      <trkpt lat="42.53271" lon="2.03157">
        <ele>2126.2</ele>
        <time>2021-12-29T13:19:48Z</time>
      </trkpt>
      <trkpt lat="42.53311" lon="2.03177">
        <ele>2124.1</ele>
        <time>2021-12-29T13:19:58Z</time>
      </trkpt>
      <trkpt lat="42.53349" lon="2.0322">
        <ele>2118</ele>
        <time>2021-12-29T13:20:08Z</time>
      </trkpt>
      <trkpt lat="42.53401" lon="2.03234">
        <ele>2109.6</ele>
        <time>2021-12-29T13:20:18Z</time>
      </trkpt>
      <trkpt lat="42.53451" lon="2.03268">
        <ele>2098.3</ele>
        <time>2021-12-29T13:20:28Z</time>
      </trkpt>
      <trkpt lat="42.53513" lon="2.03291">
        <ele>2085.4</ele>
        <time>2021-12-29T13:20:38Z</time>
      </trkpt>
      <trkpt lat="42.53569" lon="2.03304">
        <ele>2075.2</ele>
        <time>2021-12-29T13:20:48Z</time>
      </trkpt>
      <trkpt lat="42.53578" lon="2.03289">
        <ele>2074.6</ele>
        <time>2021-12-29T13:21:18Z</time>
      </trkpt>
      <trkpt lat="42.53597" lon="2.03261">
        <ele>2071</ele>
        <time>2021-12-29T13:21:38Z</time>
      </trkpt>
      <trkpt lat="42.5364" lon="2.03261">
        <ele>2057.2</ele>
        <time>2021-12-29T13:21:48Z</time>
      </trkpt>
      <trkpt lat="42.53689" lon="2.0328">
        <ele>2036.6</ele>
        <time>2021-12-29T13:21:58Z</time>
      </trkpt>
      <trkpt lat="42.53769" lon="2.03276">
        <ele>1998.9</ele>
        <time>2021-12-29T13:22:08Z</time>
      </trkpt>
      <trkpt lat="42.53767" lon="2.03312">
        <ele>1998.8</ele>
        <time>2021-12-29T13:22:18Z</time>
      </trkpt>
      <trkpt lat="42.53767" lon="2.03328">
        <ele>1998.4</ele>
        <time>2021-12-29T13:22:38Z</time>
      </trkpt>
      <trkpt lat="42.53748" lon="2.03377">
        <ele>2002</ele>
        <time>2021-12-29T13:22:58Z</time>
      </trkpt>
      <trkpt lat="42.53782" lon="2.03424">
        <ele>1982.2</ele>
        <time>2021-12-29T13:23:08Z</time>
      </trkpt>
      <trkpt lat="42.53841" lon="2.03425">
        <ele>1956.2</ele>
        <time>2021-12-29T13:23:18Z</time>
      </trkpt>
      <trkpt lat="42.5391" lon="2.03453">
        <ele>1938.6</ele>
        <time>2021-12-29T13:23:28Z</time>
      </trkpt>
      <trkpt lat="42.53945" lon="2.03478">
        <ele>1928.3</ele>
        <time>2021-12-29T13:23:38Z</time>
      </trkpt>
      <trkpt lat="42.53932" lon="2.03516">
        <ele>1925.7</ele>
        <time>2021-12-29T13:23:48Z</time>
      </trkpt>
      <trkpt lat="42.53939" lon="2.0358">
        <ele>1918</ele>
        <time>2021-12-29T13:23:58Z</time>
      </trkpt>
      <trkpt lat="42.53944" lon="2.03631">
        <ele>1914.5</ele>
        <time>2021-12-29T13:24:38Z</time>
      </trkpt>
      <trkpt lat="42.53958" lon="2.03636">
        <ele>1910.9</ele>
        <time>2021-12-29T13:24:58Z</time>
      </trkpt>
      <trkpt lat="42.53969" lon="2.03631">
        <ele>1908.7</ele>
        <time>2021-12-29T13:31:08Z</time>
      </trkpt>
      <trkpt lat="42.5396" lon="2.03618">
        <ele>1911.6</ele>
        <time>2021-12-29T13:31:28Z</time>
      </trkpt>
      <trkpt lat="42.5395" lon="2.03605">
        <ele>1914.5</ele>
        <time>2021-12-29T13:31:38Z</time>
      </trkpt>
      <trkpt lat="42.53938" lon="2.03589">
        <ele>1917.7</ele>
        <time>2021-12-29T13:31:48Z</time>
      </trkpt>
      <trkpt lat="42.53927" lon="2.03575">
        <ele>1920.8</ele>
        <time>2021-12-29T13:31:58Z</time>
      </trkpt>
      <trkpt lat="42.53915" lon="2.03563">
        <ele>1924.3</ele>
        <time>2021-12-29T13:32:08Z</time>
      </trkpt>
      <trkpt lat="42.53908" lon="2.03556">
        <ele>1926.4</ele>
        <time>2021-12-29T13:32:48Z</time>
      </trkpt>
      <trkpt lat="42.53897" lon="2.03543">
        <ele>1929.9</ele>
        <time>2021-12-29T13:33:08Z</time>
      </trkpt>
      <trkpt lat="42.53885" lon="2.03528">
        <ele>1933.6</ele>
        <time>2021-12-29T13:33:18Z</time>
      </trkpt>
      <trkpt lat="42.53875" lon="2.03515">
        <ele>1936.7</ele>
        <time>2021-12-29T13:33:28Z</time>
      </trkpt>
      <trkpt lat="42.53864" lon="2.03502">
        <ele>1940</ele>
        <time>2021-12-29T13:33:38Z</time>
      </trkpt>
      <trkpt lat="42.53851" lon="2.03486">
        <ele>1944.8</ele>
        <time>2021-12-29T13:33:48Z</time>
      </trkpt>
      <trkpt lat="42.53838" lon="2.0347">
        <ele>1949.8</ele>
        <time>2021-12-29T13:33:58Z</time>
      </trkpt>
      <trkpt lat="42.53824" lon="2.03453">
        <ele>1958</ele>
        <time>2021-12-29T13:34:08Z</time>
      </trkpt>
      <trkpt lat="42.53811" lon="2.03437">
        <ele>1966.7</ele>
        <time>2021-12-29T13:34:18Z</time>
      </trkpt>
      <trkpt lat="42.538" lon="2.03422">
        <ele>1973.9</ele>
        <time>2021-12-29T13:34:28Z</time>
      </trkpt>
      <trkpt lat="42.53787" lon="2.03407">
        <ele>1981.9</ele>
        <time>2021-12-29T13:34:38Z</time>
      </trkpt>
      <trkpt lat="42.53774" lon="2.03394">
        <ele>1989.3</ele>
        <time>2021-12-29T13:34:48Z</time>
      </trkpt>
      <trkpt lat="42.53761" lon="2.03378">
        <ele>1996.3</ele>
        <time>2021-12-29T13:34:58Z</time>
      </trkpt>
      <trkpt lat="42.53748" lon="2.03362">
        <ele>2003</ele>
        <time>2021-12-29T13:35:08Z</time>
      </trkpt>
      <trkpt lat="42.53735" lon="2.03346">
        <ele>2011</ele>
        <time>2021-12-29T13:35:18Z</time>
      </trkpt>
      <trkpt lat="42.53722" lon="2.03331">
        <ele>2018.5</ele>
        <time>2021-12-29T13:35:28Z</time>
      </trkpt>
      <trkpt lat="42.53708" lon="2.03317">
        <ele>2026</ele>
        <time>2021-12-29T13:35:38Z</time>
      </trkpt>
      <trkpt lat="42.53696" lon="2.03302">
        <ele>2032.5</ele>
        <time>2021-12-29T13:35:48Z</time>
      </trkpt>
      <trkpt lat="42.53684" lon="2.03288">
        <ele>2039</ele>
        <time>2021-12-29T13:35:58Z</time>
      </trkpt>
      <trkpt lat="42.53671" lon="2.03273">
        <ele>2046.2</ele>
        <time>2021-12-29T13:36:08Z</time>
      </trkpt>
      <trkpt lat="42.53658" lon="2.03258">
        <ele>2051.6</ele>
        <time>2021-12-29T13:36:18Z</time>
      </trkpt>
      <trkpt lat="42.53645" lon="2.03243">
        <ele>2057.3</ele>
        <time>2021-12-29T13:36:28Z</time>
      </trkpt>
      <trkpt lat="42.53632" lon="2.03229">
        <ele>2063.9</ele>
        <time>2021-12-29T13:36:38Z</time>
      </trkpt>
      <trkpt lat="42.53621" lon="2.03214">
        <ele>2069.7</ele>
        <time>2021-12-29T13:36:48Z</time>
      </trkpt>
      <trkpt lat="42.53611" lon="2.032">
        <ele>2074.8</ele>
        <time>2021-12-29T13:36:58Z</time>
      </trkpt>
      <trkpt lat="42.53603" lon="2.0319">
        <ele>2078.6</ele>
        <time>2021-12-29T13:37:08Z</time>
      </trkpt>
      <trkpt lat="42.53595" lon="2.03181">
        <ele>2082</ele>
        <time>2021-12-29T13:37:58Z</time>
      </trkpt>
      <trkpt lat="42.53587" lon="2.03171">
        <ele>2085.5</ele>
        <time>2021-12-29T13:38:18Z</time>
      </trkpt>
      <trkpt lat="42.53574" lon="2.03158">
        <ele>2090.4</ele>
        <time>2021-12-29T13:38:28Z</time>
      </trkpt>
      <trkpt lat="42.53563" lon="2.03145">
        <ele>2094.7</ele>
        <time>2021-12-29T13:38:38Z</time>
      </trkpt>
      <trkpt lat="42.53552" lon="2.03132">
        <ele>2098.7</ele>
        <time>2021-12-29T13:38:48Z</time>
      </trkpt>
      <trkpt lat="42.53543" lon="2.03121">
        <ele>2101.9</ele>
        <time>2021-12-29T13:38:58Z</time>
      </trkpt>
      <trkpt lat="42.53533" lon="2.03109">
        <ele>2105.2</ele>
        <time>2021-12-29T13:39:08Z</time>
      </trkpt>
      <trkpt lat="42.53521" lon="2.03095">
        <ele>2108.9</ele>
        <time>2021-12-29T13:39:18Z</time>
      </trkpt>
      <trkpt lat="42.5351" lon="2.03081">
        <ele>2112.1</ele>
        <time>2021-12-29T13:39:28Z</time>
      </trkpt>
      <trkpt lat="42.53498" lon="2.03066">
        <ele>2114.9</ele>
        <time>2021-12-29T13:39:38Z</time>
      </trkpt>
      <trkpt lat="42.53485" lon="2.03051">
        <ele>2116.5</ele>
        <time>2021-12-29T13:39:48Z</time>
      </trkpt>
      <trkpt lat="42.53471" lon="2.03035">
        <ele>2117.9</ele>
        <time>2021-12-29T13:39:58Z</time>
      </trkpt>
      <trkpt lat="42.53457" lon="2.03019">
        <ele>2118.7</ele>
        <time>2021-12-29T13:40:08Z</time>
      </trkpt>
      <trkpt lat="42.53444" lon="2.03004">
        <ele>2119.1</ele>
        <time>2021-12-29T13:40:18Z</time>
      </trkpt>
      <trkpt lat="42.53429" lon="2.02988">
        <ele>2118.7</ele>
        <time>2021-12-29T13:40:28Z</time>
      </trkpt>
      <trkpt lat="42.53404" lon="2.02973">
        <ele>2117.7</ele>
        <time>2021-12-29T13:40:38Z</time>
      </trkpt>
      <trkpt lat="42.53391" lon="2.02963">
        <ele>2117.2</ele>
        <time>2021-12-29T13:40:48Z</time>
      </trkpt>
      <trkpt lat="42.53373" lon="2.02952">
        <ele>2116.2</ele>
        <time>2021-12-29T13:40:58Z</time>
      </trkpt>
      <trkpt lat="42.53357" lon="2.02946">
        <ele>2115.2</ele>
        <time>2021-12-29T13:41:08Z</time>
      </trkpt>
      <trkpt lat="42.53342" lon="2.02943">
        <ele>2114.3</ele>
        <time>2021-12-29T13:41:18Z</time>
      </trkpt>
      <trkpt lat="42.53309" lon="2.02942">
        <ele>2113.2</ele>
        <time>2021-12-29T13:42:18Z</time>
      </trkpt>
      <trkpt lat="42.53293" lon="2.02942">
        <ele>2112.8</ele>
      </trkpt>
      <trkpt lat="42.53269" lon="2.02935">
        <ele>2111.5</ele>
        <time>2021-12-29T13:42:38Z</time>
      </trkpt>
      <trkpt lat="42.5324" lon="2.02926">
        <ele>2109.1</ele>
        <time>2021-12-29T13:42:48Z</time>
      </trkpt>
      <trkpt lat="42.5319" lon="2.02902">
        <ele>2101.5</ele>
        <time>2021-12-29T13:42:58Z</time>
      </trkpt>
      <trkpt lat="42.5314" lon="2.02907">
        <ele>2097.1</ele>
        <time>2021-12-29T13:43:08Z</time>
      </trkpt>
      <trkpt lat="42.53136" lon="2.02889">
        <ele>2094.9</ele>
        <time>2021-12-29T13:43:18Z</time>
      </trkpt>
      <trkpt lat="42.53136" lon="2.02874">
        <ele>2093.3</ele>
        <time>2021-12-29T13:43:48Z</time>
      </trkpt>
      <trkpt lat="42.53115" lon="2.0278">
        <ele>2082.6</ele>
        <time>2021-12-29T13:44:08Z</time>
      </trkpt>
      <trkpt lat="42.5309" lon="2.02636">
        <ele>2071.5</ele>
        <time>2021-12-29T13:44:18Z</time>
      </trkpt>
      <trkpt lat="42.5307" lon="2.02515">
        <ele>2064.2</ele>
        <time>2021-12-29T13:44:28Z</time>
      </trkpt>
      <trkpt lat="42.53057" lon="2.02441">
        <ele>2061.6</ele>
        <time>2021-12-29T13:44:38Z</time>
      </trkpt>
      <trkpt lat="42.5305" lon="2.0238">
        <ele>2059.3</ele>
        <time>2021-12-29T13:44:48Z</time>
      </trkpt>
      <trkpt lat="42.53048" lon="2.02299">
        <ele>2056.1</ele>
        <time>2021-12-29T13:44:58Z</time>
      </trkpt>
      <trkpt lat="42.53046" lon="2.02222">
        <ele>2053.4</ele>
        <time>2021-12-29T13:45:08Z</time>
      </trkpt>
      <trkpt lat="42.53042" lon="2.0215">
        <ele>2051.4</ele>
        <time>2021-12-29T13:45:18Z</time>
      </trkpt>
      <trkpt lat="42.53036" lon="2.02122">
        <ele>2051</ele>
        <time>2021-12-29T13:45:28Z</time>
      </trkpt>
      <trkpt lat="42.53025" lon="2.02094">
        <ele>2050.3</ele>
        <time>2021-12-29T13:45:38Z</time>
      </trkpt>
      <trkpt lat="42.53014" lon="2.02079">
        <ele>2049.7</ele>
        <time>2021-12-29T13:45:48Z</time>
      </trkpt>
      <trkpt lat="42.53011" lon="2.02073">
        <ele>2049.5</ele>
        <time>2021-12-29T13:45:58Z</time>
      </trkpt>
      <trkpt lat="42.53011" lon="2.02073">
        <ele>2049.5</ele>
        <time>2021-12-29T13:54:18Z</time>
      </trkpt>
      <trkpt lat="42.53054" lon="2.02017">
        <ele>2051.6</ele>
        <time>2021-12-29T13:54:38Z</time>
      </trkpt>
      <trkpt lat="42.5308" lon="2.01988">
        <ele>2052.8</ele>
        <time>2021-12-29T13:54:48Z</time>
      </trkpt>
      <trkpt lat="42.53108" lon="2.01958">
        <ele>2055.7</ele>
        <time>2021-12-29T13:54:58Z</time>
      </trkpt>
      <trkpt lat="42.53135" lon="2.01932">
        <ele>2059</ele>
        <time>2021-12-29T13:55:08Z</time>
      </trkpt>
      <trkpt lat="42.53164" lon="2.01906">
        <ele>2063.3</ele>
        <time>2021-12-29T13:55:18Z</time>
      </trkpt>
      <trkpt lat="42.5319" lon="2.0188">
        <ele>2068.2</ele>
        <time>2021-12-29T13:55:28Z</time>
      </trkpt>
      <trkpt lat="42.53219" lon="2.01855">
        <ele>2073.1</ele>
        <time>2021-12-29T13:55:38Z</time>
      </trkpt>
      <trkpt lat="42.53246" lon="2.01829">
        <ele>2077.7</ele>
        <time>2021-12-29T13:55:48Z</time>
      </trkpt>
      <trkpt lat="42.53272" lon="2.01801">
        <ele>2082.8</ele>
        <time>2021-12-29T13:55:58Z</time>
      </trkpt>
      <trkpt lat="42.53299" lon="2.01775">
        <ele>2088.3</ele>
        <time>2021-12-29T13:56:08Z</time>
      </trkpt>
      <trkpt lat="42.53322" lon="2.01751">
        <ele>2093.2</ele>
        <time>2021-12-29T13:56:18Z</time>
      </trkpt>
      <trkpt lat="42.53336" lon="2.01734">
        <ele>2098.6</ele>
        <time>2021-12-29T13:56:58Z</time>
      </trkpt>
      <trkpt lat="42.53351" lon="2.01721">
        <ele>2105.8</ele>
        <time>2021-12-29T13:57:18Z</time>
      </trkpt>
      <trkpt lat="42.53375" lon="2.01698">
        <ele>2117.7</ele>
        <time>2021-12-29T13:57:28Z</time>
      </trkpt>
      <trkpt lat="42.53401" lon="2.01672">
        <ele>2130.8</ele>
        <time>2021-12-29T13:57:38Z</time>
      </trkpt>
      <trkpt lat="42.53409" lon="2.01664">
        <ele>2134.9</ele>
        <time>2021-12-29T13:57:58Z</time>
      </trkpt>
      <trkpt lat="42.53418" lon="2.01655">
        <ele>2139.6</ele>
        <time>2021-12-29T13:58:18Z</time>
      </trkpt>
      <trkpt lat="42.53427" lon="2.01645">
        <ele>2145.4</ele>
        <time>2021-12-29T13:58:28Z</time>
      </trkpt>
      <trkpt lat="42.53445" lon="2.01627">
        <ele>2156.4</ele>
        <time>2021-12-29T13:58:38Z</time>
      </trkpt>
      <trkpt lat="42.5347" lon="2.01604">
        <ele>2171</ele>
        <time>2021-12-29T13:58:48Z</time>
      </trkpt>
      <trkpt lat="42.53495" lon="2.01579">
        <ele>2185.2</ele>
        <time>2021-12-29T13:58:58Z</time>
      </trkpt>
      <trkpt lat="42.53518" lon="2.01561">
        <ele>2193.2</ele>
        <time>2021-12-29T13:59:08Z</time>
      </trkpt>
      <trkpt lat="42.53524" lon="2.01561">
        <ele>2194.7</ele>
        <time>2021-12-29T13:59:18Z</time>
      </trkpt>
      <trkpt lat="42.53531" lon="2.01569">
        <ele>2196.3</ele>
        <time>2021-12-29T13:59:28Z</time>
      </trkpt>
      <trkpt lat="42.53537" lon="2.01587">
        <ele>2197.3</ele>
        <time>2021-12-29T14:00:28Z</time>
      </trkpt>
      <trkpt lat="42.53556" lon="2.01616">
        <ele>2199.9</ele>
        <time>2021-12-29T14:00:48Z</time>
      </trkpt>
      <trkpt lat="42.53583" lon="2.01623">
        <ele>2207.6</ele>
        <time>2021-12-29T14:00:58Z</time>
      </trkpt>
      <trkpt lat="42.53626" lon="2.0163">
        <ele>2207.9</ele>
        <time>2021-12-29T14:01:08Z</time>
      </trkpt>
      <trkpt lat="42.53658" lon="2.01602">
        <ele>2210</ele>
        <time>2021-12-29T14:01:18Z</time>
      </trkpt>
      <trkpt lat="42.53687" lon="2.01564">
        <ele>2208.3</ele>
        <time>2021-12-29T14:01:28Z</time>
      </trkpt>
      <trkpt lat="42.53705" lon="2.01536">
        <ele>2205.7</ele>
        <time>2021-12-29T14:01:38Z</time>
      </trkpt>
      <trkpt lat="42.53726" lon="2.01517">
        <ele>2202.6</ele>
        <time>2021-12-29T14:02:08Z</time>
      </trkpt>
      <trkpt lat="42.53766" lon="2.01468">
        <ele>2194.4</ele>
        <time>2021-12-29T14:02:28Z</time>
      </trkpt>
      <trkpt lat="42.53816" lon="2.01416">
        <ele>2182.3</ele>
        <time>2021-12-29T14:02:38Z</time>
      </trkpt>
      <trkpt lat="42.5386" lon="2.01368">
        <ele>2171.2</ele>
        <time>2021-12-29T14:02:48Z</time>
      </trkpt>
      <trkpt lat="42.53891" lon="2.01326">
        <ele>2161.2</ele>
        <time>2021-12-29T14:02:58Z</time>
      </trkpt>
      <trkpt lat="42.53924" lon="2.01313">
        <ele>2151.7</ele>
        <time>2021-12-29T14:03:08Z</time>
      </trkpt>
      <trkpt lat="42.53948" lon="2.0129">
        <ele>2143.6</ele>
        <time>2021-12-29T14:04:08Z</time>
      </trkpt>
      <trkpt lat="42.54005" lon="2.01235">
        <ele>2124.6</ele>
        <time>2021-12-29T14:04:28Z</time>
      </trkpt>
      <trkpt lat="42.5407" lon="2.01215">
        <ele>2099</ele>
        <time>2021-12-29T14:04:38Z</time>
      </trkpt>
      <trkpt lat="42.54112" lon="2.01152">
        <ele>2083.1</ele>
        <time>2021-12-29T14:04:48Z</time>
      </trkpt>
      <trkpt lat="42.54136" lon="2.01075">
        <ele>2073.3</ele>
        <time>2021-12-29T14:04:58Z</time>
      </trkpt>
      <trkpt lat="42.54147" lon="2.01011">
        <ele>2067.5</ele>
        <time>2021-12-29T14:05:08Z</time>
      </trkpt>
      <trkpt lat="42.5419" lon="2.00968">
        <ele>2055</ele>
        <time>2021-12-29T14:05:18Z</time>
      </trkpt>
      <trkpt lat="42.54228" lon="2.00925">
        <ele>2043.5</ele>
        <time>2021-12-29T14:05:28Z</time>
      </trkpt>
      <trkpt lat="42.54254" lon="2.00873">
        <ele>2029.8</ele>
        <time>2021-12-29T14:05:38Z</time>
      </trkpt>
      <trkpt lat="42.54277" lon="2.00852">
        <ele>2021.1</ele>
        <time>2021-12-29T14:06:18Z</time>
      </trkpt>
      <trkpt lat="42.54286" lon="2.00838">
        <ele>2016.6</ele>
        <time>2021-12-29T14:06:38Z</time>
      </trkpt>
      <trkpt lat="42.54302" lon="2.00814">
        <ele>2006.4</ele>
        <time>2021-12-29T14:06:58Z</time>
      </trkpt>
      <trkpt lat="42.5431" lon="2.00758">
        <ele>1988.1</ele>
        <time>2021-12-29T14:07:08Z</time>
      </trkpt>
      <trkpt lat="42.54333" lon="2.00665">
        <ele>1956.7</ele>
        <time>2021-12-29T14:07:18Z</time>
      </trkpt>
      <trkpt lat="42.54311" lon="2.0056">
        <ele>1938.6</ele>
        <time>2021-12-29T14:07:28Z</time>
      </trkpt>
      <trkpt lat="42.5429" lon="2.00549">
        <ele>1939</ele>
        <time>2021-12-29T14:07:38Z</time>
      </trkpt>
      <trkpt lat="42.54275" lon="2.00536">
        <ele>1938.5</ele>
        <time>2021-12-29T14:11:48Z</time>
      </trkpt>
      <trkpt lat="42.54262" lon="2.00552">
        <ele>1941.6</ele>
        <time>2021-12-29T14:12:08Z</time>
      </trkpt>
      <trkpt lat="42.54251" lon="2.00568">
        <ele>1944.7</ele>
        <time>2021-12-29T14:12:18Z</time>
      </trkpt>
      <trkpt lat="42.54241" lon="2.00584">
        <ele>1948.7</ele>
        <time>2021-12-29T14:12:28Z</time>
      </trkpt>
      <trkpt lat="42.54231" lon="2.00598">
        <ele>1954.7</ele>
        <time>2021-12-29T14:12:38Z</time>
      </trkpt>
      <trkpt lat="42.5422" lon="2.00617">
        <ele>1962.4</ele>
        <time>2021-12-29T14:12:48Z</time>
      </trkpt>
      <trkpt lat="42.54209" lon="2.00634">
        <ele>1969.7</ele>
        <time>2021-12-29T14:12:58Z</time>
      </trkpt>
      <trkpt lat="42.54197" lon="2.00648">
        <ele>1976.3</ele>
        <time>2021-12-29T14:13:08Z</time>
      </trkpt>
      <trkpt lat="42.54186" lon="2.00664">
        <ele>1983.4</ele>
        <time>2021-12-29T14:13:18Z</time>
      </trkpt>
      <trkpt lat="42.54176" lon="2.00679">
        <ele>1990.7</ele>
        <time>2021-12-29T14:13:28Z</time>
      </trkpt>
      <trkpt lat="42.54164" lon="2.00695">
        <ele>1999.3</ele>
        <time>2021-12-29T14:13:38Z</time>
      </trkpt>
      <trkpt lat="42.54153" lon="2.00708">
        <ele>2006.9</ele>
        <time>2021-12-29T14:13:48Z</time>
      </trkpt>
      <trkpt lat="42.54143" lon="2.00723">
        <ele>2014.8</ele>
        <time>2021-12-29T14:13:58Z</time>
      </trkpt>
      <trkpt lat="42.54132" lon="2.00738">
        <ele>2022.7</ele>
        <time>2021-12-29T14:14:08Z</time>
      </trkpt>
      <trkpt lat="42.54122" lon="2.00752">
        <ele>2029.7</ele>
        <time>2021-12-29T14:14:18Z</time>
      </trkpt>
      <trkpt lat="42.54111" lon="2.00768">
        <ele>2036.6</ele>
        <time>2021-12-29T14:14:28Z</time>
      </trkpt>
      <trkpt lat="42.541" lon="2.00783">
        <ele>2043.2</ele>
        <time>2021-12-29T14:14:38Z</time>
      </trkpt>
      <trkpt lat="42.54089" lon="2.00798">
        <ele>2049.9</ele>
        <time>2021-12-29T14:14:48Z</time>
      </trkpt>
      <trkpt lat="42.54079" lon="2.00812">
        <ele>2056.5</ele>
        <time>2021-12-29T14:14:58Z</time>
      </trkpt>
      <trkpt lat="42.54068" lon="2.00828">
        <ele>2064.2</ele>
        <time>2021-12-29T14:15:08Z</time>
      </trkpt>
      <trkpt lat="42.54057" lon="2.00843">
        <ele>2070.4</ele>
        <time>2021-12-29T14:15:18Z</time>
      </trkpt>
      <trkpt lat="42.54046" lon="2.00857">
        <ele>2075.8</ele>
        <time>2021-12-29T14:15:28Z</time>
      </trkpt>
      <trkpt lat="42.54035" lon="2.00871">
        <ele>2081.1</ele>
        <time>2021-12-29T14:15:38Z</time>
      </trkpt>
      <trkpt lat="42.54023" lon="2.00887">
        <ele>2087</ele>
        <time>2021-12-29T14:15:48Z</time>
      </trkpt>
      <trkpt lat="42.54012" lon="2.00902">
        <ele>2092.4</ele>
        <time>2021-12-29T14:15:58Z</time>
      </trkpt>
      <trkpt lat="42.54001" lon="2.00918">
        <ele>2097.9</ele>
        <time>2021-12-29T14:16:08Z</time>
      </trkpt>
      <trkpt lat="42.53989" lon="2.00935">
        <ele>2103.4</ele>
        <time>2021-12-29T14:16:18Z</time>
      </trkpt>
      <trkpt lat="42.53977" lon="2.00953">
        <ele>2108.8</ele>
        <time>2021-12-29T14:16:28Z</time>
      </trkpt>
      <trkpt lat="42.53965" lon="2.00969">
        <ele>2113.8</ele>
        <time>2021-12-29T14:16:38Z</time>
      </trkpt>
      <trkpt lat="42.53955" lon="2.00981">
        <ele>2117.8</ele>
        <time>2021-12-29T14:16:48Z</time>
      </trkpt>
      <trkpt lat="42.53945" lon="2.00996">
        <ele>2122</ele>
        <time>2021-12-29T14:16:58Z</time>
      </trkpt>
      <trkpt lat="42.53935" lon="2.01013">
        <ele>2126.4</ele>
        <time>2021-12-29T14:17:08Z</time>
      </trkpt>
      <trkpt lat="42.53923" lon="2.01028">
        <ele>2130.9</ele>
        <time>2021-12-29T14:17:18Z</time>
      </trkpt>
      <trkpt lat="42.53912" lon="2.01043">
        <ele>2135.2</ele>
        <time>2021-12-29T14:17:28Z</time>
      </trkpt>
      <trkpt lat="42.53901" lon="2.01058">
        <ele>2139.4</ele>
        <time>2021-12-29T14:17:38Z</time>
      </trkpt>
      <trkpt lat="42.5389" lon="2.01073">
        <ele>2143.4</ele>
        <time>2021-12-29T14:17:48Z</time>
      </trkpt>
      <trkpt lat="42.53877" lon="2.0109">
        <ele>2147.4</ele>
        <time>2021-12-29T14:17:58Z</time>
      </trkpt>
      <trkpt lat="42.53866" lon="2.01107">
        <ele>2150.3</ele>
        <time>2021-12-29T14:18:08Z</time>
      </trkpt>
      <trkpt lat="42.53855" lon="2.01121">
        <ele>2153.1</ele>
        <time>2021-12-29T14:18:18Z</time>
      </trkpt>
      <trkpt lat="42.53843" lon="2.01138">
        <ele>2156.1</ele>
        <time>2021-12-29T14:18:28Z</time>
      </trkpt>
      <trkpt lat="42.53832" lon="2.01154">
        <ele>2158.9</ele>
        <time>2021-12-29T14:18:38Z</time>
      </trkpt>
      <trkpt lat="42.5382" lon="2.01171">
        <ele>2162.7</ele>
        <time>2021-12-29T14:18:48Z</time>
      </trkpt>
      <trkpt lat="42.53809" lon="2.01187">
        <ele>2166.7</ele>
        <time>2021-12-29T14:18:58Z</time>
      </trkpt>
      <trkpt lat="42.53798" lon="2.01203">
        <ele>2170.6</ele>
        <time>2021-12-29T14:19:08Z</time>
      </trkpt>
      <trkpt lat="42.53788" lon="2.01218">
        <ele>2174.1</ele>
        <time>2021-12-29T14:19:18Z</time>
      </trkpt>
      <trkpt lat="42.53779" lon="2.01232">
        <ele>2177.2</ele>
        <time>2021-12-29T14:19:28Z</time>
      </trkpt>
      <trkpt lat="42.53767" lon="2.01248">
        <ele>2181</ele>
        <time>2021-12-29T14:19:38Z</time>
      </trkpt>
      <trkpt lat="42.53758" lon="2.01263">
        <ele>2183.9</ele>
        <time>2021-12-29T14:19:48Z</time>
      </trkpt>
      <trkpt lat="42.53746" lon="2.0128">
        <ele>2187.1</ele>
        <time>2021-12-29T14:19:58Z</time>
      </trkpt>
      <trkpt lat="42.53733" lon="2.01295">
        <ele>2189.6</ele>
        <time>2021-12-29T14:20:08Z</time>
      </trkpt>
      <trkpt lat="42.53722" lon="2.0131">
        <ele>2191.5</ele>
        <time>2021-12-29T14:20:18Z</time>
      </trkpt>
      <trkpt lat="42.53711" lon="2.01326">
        <ele>2193.1</ele>
        <time>2021-12-29T14:20:28Z</time>
      </trkpt>
      <trkpt lat="42.537" lon="2.0134">
        <ele>2194.8</ele>
        <time>2021-12-29T14:20:38Z</time>
      </trkpt>
      <trkpt lat="42.53688" lon="2.01356">
        <ele>2197.1</ele>
        <time>2021-12-29T14:20:48Z</time>
      </trkpt>
      <trkpt lat="42.53676" lon="2.01372">
        <ele>2199.4</ele>
        <time>2021-12-29T14:20:58Z</time>
      </trkpt>
      <trkpt lat="42.53664" lon="2.01388">
        <ele>2201.4</ele>
        <time>2021-12-29T14:21:08Z</time>
      </trkpt>
      <trkpt lat="42.53653" lon="2.01404">
        <ele>2202.6</ele>
        <time>2021-12-29T14:21:18Z</time>
      </trkpt>
      <trkpt lat="42.53641" lon="2.01421">
        <ele>2203.6</ele>
        <time>2021-12-29T14:21:28Z</time>
      </trkpt>
      <trkpt lat="42.53629" lon="2.01437">
        <ele>2204.9</ele>
        <time>2021-12-29T14:21:38Z</time>
      </trkpt>
      <trkpt lat="42.53618" lon="2.01452">
        <ele>2205.7</ele>
        <time>2021-12-29T14:21:48Z</time>
      </trkpt>
      <trkpt lat="42.53606" lon="2.01469">
        <ele>2206.5</ele>
        <time>2021-12-29T14:21:58Z</time>
      </trkpt>
      <trkpt lat="42.53595" lon="2.01486">
        <ele>2206.9</ele>
        <time>2021-12-29T14:22:08Z</time>
      </trkpt>
      <trkpt lat="42.53584" lon="2.01502">
        <ele>2207.1</ele>
        <time>2021-12-29T14:22:18Z</time>
      </trkpt>
      <trkpt lat="42.53572" lon="2.0152">
        <ele>2205.7</ele>
        <time>2021-12-29T14:22:28Z</time>
      </trkpt>
      <trkpt lat="42.53563" lon="2.01532">
        <ele>2204.2</ele>
        <time>2021-12-29T14:22:38Z</time>
      </trkpt>
      <trkpt lat="42.53557" lon="2.01541">
        <ele>2203</ele>
        <time>2021-12-29T14:22:48Z</time>
      </trkpt>
      <trkpt lat="42.53552" lon="2.0157">
        <ele>2201.9</ele>
        <time>2021-12-29T14:22:58Z</time>
      </trkpt>
      <trkpt lat="42.53566" lon="2.01565">
        <ele>2205.6</ele>
        <time>2021-12-29T14:23:08Z</time>
      </trkpt>
      <trkpt lat="42.53574" lon="2.01554">
        <ele>2207.3</ele>
        <time>2021-12-29T14:23:28Z</time>
      </trkpt>
      <trkpt lat="42.53579" lon="2.01535">
        <ele>2207.7</ele>
        <time>2021-12-29T14:23:48Z</time>
      </trkpt>
      <trkpt lat="42.53569" lon="2.01514">
        <ele>2205</ele>
        <time>2021-12-29T14:23:58Z</time>
      </trkpt>
      <trkpt lat="42.53563" lon="2.01477">
        <ele>2203.3</ele>
        <time>2021-12-29T14:24:08Z</time>
      </trkpt>
      <trkpt lat="42.53569" lon="2.01421">
        <ele>2203.1</ele>
        <time>2021-12-29T14:24:18Z</time>
      </trkpt>
      <trkpt lat="42.53574" lon="2.01373">
        <ele>2203.7</ele>
        <time>2021-12-29T14:24:28Z</time>
      </trkpt>
      <trkpt lat="42.53583" lon="2.01337">
        <ele>2204.9</ele>
        <time>2021-12-29T14:24:38Z</time>
      </trkpt>
      <trkpt lat="42.53602" lon="2.01308">
        <ele>2204.5</ele>
        <time>2021-12-29T14:24:48Z</time>
      </trkpt>
      <trkpt lat="42.53635" lon="2.01283">
        <ele>2202.3</ele>
        <time>2021-12-29T14:30:18Z</time>
      </trkpt>
      <trkpt lat="42.53678" lon="2.01252">
        <ele>2197.9</ele>
        <time>2021-12-29T14:30:38Z</time>
      </trkpt>
      <trkpt lat="42.53728" lon="2.01228">
        <ele>2188.1</ele>
        <time>2021-12-29T14:30:48Z</time>
      </trkpt>
      <trkpt lat="42.53789" lon="2.0119">
        <ele>2171.8</ele>
        <time>2021-12-29T14:30:58Z</time>
      </trkpt>
      <trkpt lat="42.53852" lon="2.01152">
        <ele>2154.8</ele>
        <time>2021-12-29T14:31:08Z</time>
      </trkpt>
      <trkpt lat="42.53906" lon="2.01148">
        <ele>2144.2</ele>
        <time>2021-12-29T14:31:18Z</time>
      </trkpt>
      <trkpt lat="42.53931" lon="2.01131">
        <ele>2138</ele>
        <time>2021-12-29T14:31:28Z</time>
      </trkpt>
      <trkpt lat="42.53948" lon="2.01128">
        <ele>2134</ele>
        <time>2021-12-29T14:31:38Z</time>
      </trkpt>
      <trkpt lat="42.53988" lon="2.01085">
        <ele>2122.8</ele>
        <time>2021-12-29T14:31:48Z</time>
      </trkpt>
      <trkpt lat="42.54035" lon="2.0103">
        <ele>2101.4</ele>
        <time>2021-12-29T14:31:58Z</time>
      </trkpt>
      <trkpt lat="42.54048" lon="2.01006">
        <ele>2094.9</ele>
        <time>2021-12-29T14:32:28Z</time>
      </trkpt>
      <trkpt lat="42.54069" lon="2.00954">
        <ele>2082.4</ele>
        <time>2021-12-29T14:32:48Z</time>
      </trkpt>
      <trkpt lat="42.54091" lon="2.00907">
        <ele>2070.8</ele>
        <time>2021-12-29T14:32:58Z</time>
      </trkpt>
      <trkpt lat="42.54136" lon="2.00879">
        <ele>2056.2</ele>
        <time>2021-12-29T14:33:08Z</time>
      </trkpt>
      <trkpt lat="42.54176" lon="2.00848">
        <ele>2041.7</ele>
        <time>2021-12-29T14:33:18Z</time>
      </trkpt>
      <trkpt lat="42.54206" lon="2.00812">
        <ele>2026.9</ele>
        <time>2021-12-29T14:33:28Z</time>
      </trkpt>
      <trkpt lat="42.54231" lon="2.00783">
        <ele>2012.7</ele>
        <time>2021-12-29T14:33:38Z</time>
      </trkpt>
      <trkpt lat="42.54262" lon="2.00743">
        <ele>1993.4</ele>
        <time>2021-12-29T14:33:48Z</time>
      </trkpt>
      <trkpt lat="42.54287" lon="2.00685">
        <ele>1970.9</ele>
        <time>2021-12-29T14:33:58Z</time>
      </trkpt>
      <trkpt lat="42.54279" lon="2.0058">
        <ele>1943.8</ele>
        <time>2021-12-29T14:34:08Z</time>
      </trkpt>
      <trkpt lat="42.54271" lon="2.00545">
        <ele>1939.9</ele>
        <time>2021-12-29T14:41:28Z</time>
      </trkpt>
      <trkpt lat="42.54258" lon="2.00563">
        <ele>1943.4</ele>
        <time>2021-12-29T14:41:48Z</time>
      </trkpt>
      <trkpt lat="42.54247" lon="2.00579">
        <ele>1946.9</ele>
        <time>2021-12-29T14:41:58Z</time>
      </trkpt>
      <trkpt lat="42.54235" lon="2.00596">
        <ele>1953.4</ele>
        <time>2021-12-29T14:42:08Z</time>
      </trkpt>
      <trkpt lat="42.54224" lon="2.00611">
        <ele>1959.9</ele>
        <time>2021-12-29T14:42:18Z</time>
      </trkpt>
      <trkpt lat="42.54213" lon="2.00627">
        <ele>1966.8</ele>
        <time>2021-12-29T14:42:28Z</time>
      </trkpt>
      <trkpt lat="42.54201" lon="2.00643">
        <ele>1974</ele>
        <time>2021-12-29T14:42:38Z</time>
      </trkpt>
      <trkpt lat="42.5419" lon="2.00659">
        <ele>1981.1</ele>
        <time>2021-12-29T14:42:48Z</time>
      </trkpt>
      <trkpt lat="42.54179" lon="2.00675">
        <ele>1988.7</ele>
        <time>2021-12-29T14:42:58Z</time>
      </trkpt>
      <trkpt lat="42.54168" lon="2.0069">
        <ele>1996.4</ele>
        <time>2021-12-29T14:43:08Z</time>
      </trkpt>
      <trkpt lat="42.54157" lon="2.00706">
        <ele>2005.1</ele>
        <time>2021-12-29T14:43:18Z</time>
      </trkpt>
      <trkpt lat="42.54145" lon="2.00721">
        <ele>2013.6</ele>
        <time>2021-12-29T14:43:28Z</time>
      </trkpt>
      <trkpt lat="42.54136" lon="2.00735">
        <ele>2020.7</ele>
        <time>2021-12-29T14:43:38Z</time>
      </trkpt>
      <trkpt lat="42.54129" lon="2.00744">
        <ele>2025.5</ele>
        <time>2021-12-29T14:43:48Z</time>
      </trkpt>
      <trkpt lat="42.54123" lon="2.00754">
        <ele>2030</ele>
        <time>2021-12-29T14:43:58Z</time>
      </trkpt>
      <trkpt lat="42.54114" lon="2.00766">
        <ele>2035.4</ele>
        <time>2021-12-29T14:44:08Z</time>
      </trkpt>
      <trkpt lat="42.54101" lon="2.00782">
        <ele>2042.7</ele>
        <time>2021-12-29T14:44:58Z</time>
      </trkpt>
      <trkpt lat="42.5409" lon="2.00797">
        <ele>2049.4</ele>
        <time>2021-12-29T14:45:18Z</time>
      </trkpt>
      <trkpt lat="42.54079" lon="2.00812">
        <ele>2056.5</ele>
        <time>2021-12-29T14:45:28Z</time>
      </trkpt>
      <trkpt lat="42.54069" lon="2.00828">
        <ele>2063.9</ele>
        <time>2021-12-29T14:45:38Z</time>
      </trkpt>
      <trkpt lat="42.54059" lon="2.00843">
        <ele>2069.8</ele>
        <time>2021-12-29T14:45:48Z</time>
      </trkpt>
      <trkpt lat="42.54047" lon="2.00858">
        <ele>2075.6</ele>
        <time>2021-12-29T14:45:58Z</time>
      </trkpt>
      <trkpt lat="42.54036" lon="2.00874">
        <ele>2081.3</ele>
        <time>2021-12-29T14:46:08Z</time>
      </trkpt>
      <trkpt lat="42.54024" lon="2.00889">
        <ele>2087</ele>
        <time>2021-12-29T14:46:18Z</time>
      </trkpt>
      <trkpt lat="42.54013" lon="2.00905">
        <ele>2092.6</ele>
        <time>2021-12-29T14:46:28Z</time>
      </trkpt>
      <trkpt lat="42.54002" lon="2.0092">
        <ele>2097.9</ele>
        <time>2021-12-29T14:46:38Z</time>
      </trkpt>
      <trkpt lat="42.53992" lon="2.00935">
        <ele>2102.6</ele>
        <time>2021-12-29T14:46:48Z</time>
      </trkpt>
      <trkpt lat="42.5398" lon="2.00951">
        <ele>2107.8</ele>
        <time>2021-12-29T14:46:58Z</time>
      </trkpt>
      <trkpt lat="42.53968" lon="2.00968">
        <ele>2113</ele>
        <time>2021-12-29T14:47:08Z</time>
      </trkpt>
      <trkpt lat="42.53957" lon="2.00983">
        <ele>2117.6</ele>
        <time>2021-12-29T14:47:18Z</time>
      </trkpt>
      <trkpt lat="42.53945" lon="2.00999">
        <ele>2122.4</ele>
        <time>2021-12-29T14:47:28Z</time>
      </trkpt>
      <trkpt lat="42.53934" lon="2.01015">
        <ele>2126.8</ele>
        <time>2021-12-29T14:47:38Z</time>
      </trkpt>
      <trkpt lat="42.53922" lon="2.01031">
        <ele>2131.5</ele>
        <time>2021-12-29T14:47:48Z</time>
      </trkpt>
      <trkpt lat="42.53912" lon="2.01044">
        <ele>2135.4</ele>
        <time>2021-12-29T14:47:58Z</time>
      </trkpt>
      <trkpt lat="42.53901" lon="2.0106">
        <ele>2139.7</ele>
        <time>2021-12-29T14:48:08Z</time>
      </trkpt>
      <trkpt lat="42.5389" lon="2.01076">
        <ele>2143.7</ele>
        <time>2021-12-29T14:48:18Z</time>
      </trkpt>
      <trkpt lat="42.53879" lon="2.01092">
        <ele>2147.1</ele>
        <time>2021-12-29T14:48:28Z</time>
      </trkpt>
      <trkpt lat="42.53867" lon="2.01108">
        <ele>2150.1</ele>
        <time>2021-12-29T14:48:38Z</time>
      </trkpt>
      <trkpt lat="42.53856" lon="2.01125">
        <ele>2153</ele>
        <time>2021-12-29T14:48:48Z</time>
      </trkpt>
      <trkpt lat="42.53844" lon="2.01142">
        <ele>2156</ele>
        <time>2021-12-29T14:48:58Z</time>
      </trkpt>
      <trkpt lat="42.53832" lon="2.01158">
        <ele>2159</ele>
        <time>2021-12-29T14:49:08Z</time>
      </trkpt>
      <trkpt lat="42.5382" lon="2.01175">
        <ele>2163</ele>
        <time>2021-12-29T14:49:18Z</time>
      </trkpt>
      <trkpt lat="42.53808" lon="2.01192">
        <ele>2167.3</ele>
        <time>2021-12-29T14:49:28Z</time>
      </trkpt>
      <trkpt lat="42.53796" lon="2.01208">
        <ele>2171.4</ele>
        <time>2021-12-29T14:49:38Z</time>
      </trkpt>
      <trkpt lat="42.53785" lon="2.01224">
        <ele>2175.2</ele>
        <time>2021-12-29T14:49:48Z</time>
      </trkpt>
      <trkpt lat="42.53774" lon="2.0124">
        <ele>2178.9</ele>
        <time>2021-12-29T14:49:58Z</time>
      </trkpt>
      <trkpt lat="42.53764" lon="2.01253">
        <ele>2182</ele>
        <time>2021-12-29T14:50:08Z</time>
      </trkpt>
      <trkpt lat="42.53754" lon="2.01268">
        <ele>2185</ele>
        <time>2021-12-29T14:50:58Z</time>
      </trkpt>
      <trkpt lat="42.53743" lon="2.01283">
        <ele>2187.6</ele>
        <time>2021-12-29T14:51:18Z</time>
      </trkpt>
      <trkpt lat="42.53732" lon="2.013">
        <ele>2189.9</ele>
        <time>2021-12-29T14:51:28Z</time>
      </trkpt>
      <trkpt lat="42.5372" lon="2.01316">
        <ele>2191.9</ele>
        <time>2021-12-29T14:51:38Z</time>
      </trkpt>
      <trkpt lat="42.53709" lon="2.0133">
        <ele>2193.4</ele>
        <time>2021-12-29T14:51:48Z</time>
      </trkpt>
      <trkpt lat="42.53699" lon="2.01345">
        <ele>2195.3</ele>
        <time>2021-12-29T14:51:58Z</time>
      </trkpt>
      <trkpt lat="42.53687" lon="2.01362">
        <ele>2197.6</ele>
        <time>2021-12-29T14:52:08Z</time>
      </trkpt>
      <trkpt lat="42.53676" lon="2.01379">
        <ele>2199.8</ele>
        <time>2021-12-29T14:52:18Z</time>
      </trkpt>
      <trkpt lat="42.53664" lon="2.01395">
        <ele>2201.8</ele>
        <time>2021-12-29T14:52:28Z</time>
      </trkpt>
      <trkpt lat="42.53653" lon="2.01411">
        <ele>2202.9</ele>
        <time>2021-12-29T14:52:38Z</time>
      </trkpt>
      <trkpt lat="42.53641" lon="2.01427">
        <ele>2204.1</ele>
        <time>2021-12-29T14:52:48Z</time>
      </trkpt>
      <trkpt lat="42.53629" lon="2.01443">
        <ele>2205.3</ele>
        <time>2021-12-29T14:52:58Z</time>
      </trkpt>
      <trkpt lat="42.53619" lon="2.01456">
        <ele>2206</ele>
        <time>2021-12-29T14:53:08Z</time>
      </trkpt>
      <trkpt lat="42.5361" lon="2.01469">
        <ele>2206.6</ele>
        <time>2021-12-29T14:53:18Z</time>
      </trkpt>
      <trkpt lat="42.53601" lon="2.01482">
        <ele>2207</ele>
        <time>2021-12-29T14:53:28Z</time>
      </trkpt>
      <trkpt lat="42.53592" lon="2.01495">
        <ele>2207.2</ele>
        <time>2021-12-29T14:53:38Z</time>
      </trkpt>
      <trkpt lat="42.5358" lon="2.01512">
        <ele>2207</ele>
        <time>2021-12-29T14:53:48Z</time>
      </trkpt>
      <trkpt lat="42.53568" lon="2.01528">
        <ele>2205.1</ele>
        <time>2021-12-29T14:53:58Z</time>
      </trkpt>
      <trkpt lat="42.53556" lon="2.01544">
        <ele>2202.8</ele>
        <time>2021-12-29T14:54:08Z</time>
      </trkpt>
      <trkpt lat="42.53542" lon="2.01573">
        <ele>2199.2</ele>
        <time>2021-12-29T14:54:18Z</time>
      </trkpt>
      <trkpt lat="42.5353" lon="2.01591">
        <ele>2194.8</ele>
        <time>2021-12-29T14:54:28Z</time>
      </trkpt>
      <trkpt lat="42.5352" lon="2.01593">
        <ele>2191.6</ele>
        <time>2021-12-29T14:54:48Z</time>
      </trkpt>
      <trkpt lat="42.53531" lon="2.01621">
        <ele>2191.6</ele>
        <time>2021-12-29T14:55:28Z</time>
      </trkpt>
      <trkpt lat="42.53545" lon="2.0166">
        <ele>2191.8</ele>
        <time>2021-12-29T14:55:48Z</time>
      </trkpt>
      <trkpt lat="42.53547" lon="2.01749">
        <ele>2179.8</ele>
        <time>2021-12-29T14:55:58Z</time>
      </trkpt>
      <trkpt lat="42.53542" lon="2.01809">
        <ele>2173.7</ele>
        <time>2021-12-29T14:56:08Z</time>
      </trkpt>
      <trkpt lat="42.53533" lon="2.01842">
        <ele>2167.7</ele>
        <time>2021-12-29T14:56:18Z</time>
      </trkpt>
      <trkpt lat="42.53502" lon="2.0187">
        <ele>2152.2</ele>
        <time>2021-12-29T14:56:58Z</time>
      </trkpt>
      <trkpt lat="42.53494" lon="2.01865">
        <ele>2149</ele>
        <time>2021-12-29T14:59:28Z</time>
      </trkpt>
      <trkpt lat="42.53481" lon="2.01852">
        <ele>2143.9</ele>
        <time>2021-12-29T14:59:48Z</time>
      </trkpt>
      <trkpt lat="42.53446" lon="2.01865">
        <ele>2127.2</ele>
        <time>2021-12-29T15:00:08Z</time>
      </trkpt>
      <trkpt lat="42.53399" lon="2.01883">
        <ele>2107.9</ele>
        <time>2021-12-29T15:00:18Z</time>
      </trkpt>
      <trkpt lat="42.53369" lon="2.01911">
        <ele>2097.9</ele>
        <time>2021-12-29T15:00:28Z</time>
      </trkpt>
      <trkpt lat="42.53312" lon="2.01943">
        <ele>2083.3</ele>
        <time>2021-12-29T15:00:38Z</time>
      </trkpt>
      <trkpt lat="42.53225" lon="2.01978">
        <ele>2068.2</ele>
        <time>2021-12-29T15:00:48Z</time>
      </trkpt>
      <trkpt lat="42.53153" lon="2.02017">
        <ele>2059.2</ele>
        <time>2021-12-29T15:00:58Z</time>
      </trkpt>
      <trkpt lat="42.53082" lon="2.02061">
        <ele>2052.9</ele>
        <time>2021-12-29T15:01:08Z</time>
      </trkpt>
      <trkpt lat="42.53026" lon="2.02077">
        <ele>2050.2</ele>
        <time>2021-12-29T15:01:18Z</time>
      </trkpt>
      <trkpt lat="42.53019" lon="2.02065">
        <ele>2049.9</ele>
        <time>2021-12-29T15:01:28Z</time>
      </trkpt>
      <trkpt lat="42.53044" lon="2.02025">
        <ele>2051.1</ele>
        <time>2021-12-29T15:03:58Z</time>
      </trkpt>
      <trkpt lat="42.53069" lon="2.01999">
        <ele>2052.3</ele>
        <time>2021-12-29T15:04:18Z</time>
      </trkpt>
      <trkpt lat="42.53096" lon="2.01973">
        <ele>2054.3</ele>
        <time>2021-12-29T15:04:28Z</time>
      </trkpt>
      <trkpt lat="42.53123" lon="2.01945">
        <ele>2057.4</ele>
        <time>2021-12-29T15:04:38Z</time>
      </trkpt>
      <trkpt lat="42.5315" lon="2.01917">
        <ele>2061</ele>
        <time>2021-12-29T15:04:48Z</time>
      </trkpt>
      <trkpt lat="42.53178" lon="2.01891">
        <ele>2066</ele>
        <time>2021-12-29T15:04:58Z</time>
      </trkpt>
      <trkpt lat="42.53205" lon="2.01865">
        <ele>2070.9</ele>
        <time>2021-12-29T15:05:08Z</time>
      </trkpt>
      <trkpt lat="42.53231" lon="2.01839">
        <ele>2075.4</ele>
        <time>2021-12-29T15:05:18Z</time>
      </trkpt>
      <trkpt lat="42.53256" lon="2.01816">
        <ele>2079.7</ele>
        <time>2021-12-29T15:05:28Z</time>
      </trkpt>
      <trkpt lat="42.5328" lon="2.0179">
        <ele>2084.6</ele>
        <time>2021-12-29T15:05:38Z</time>
      </trkpt>
      <trkpt lat="42.53299" lon="2.0177">
        <ele>2088.5</ele>
        <time>2021-12-29T15:05:48Z</time>
      </trkpt>
      <trkpt lat="42.53325" lon="2.01746">
        <ele>2094.4</ele>
        <time>2021-12-29T15:05:58Z</time>
      </trkpt>
      <trkpt lat="42.53348" lon="2.01722">
        <ele>2104.6</ele>
        <time>2021-12-29T15:06:08Z</time>
      </trkpt>
      <trkpt lat="42.53373" lon="2.01699">
        <ele>2116.9</ele>
        <time>2021-12-29T15:06:18Z</time>
      </trkpt>
      <trkpt lat="42.53397" lon="2.01675">
        <ele>2129</ele>
        <time>2021-12-29T15:06:28Z</time>
      </trkpt>
      <trkpt lat="42.53419" lon="2.01653">
        <ele>2140.4</ele>
        <time>2021-12-29T15:06:38Z</time>
      </trkpt>
      <trkpt lat="42.53447" lon="2.01626">
        <ele>2157.5</ele>
        <time>2021-12-29T15:06:48Z</time>
      </trkpt>
      <trkpt lat="42.53473" lon="2.016">
        <ele>2172.9</ele>
        <time>2021-12-29T15:06:58Z</time>
      </trkpt>
      <trkpt lat="42.535" lon="2.01574">
        <ele>2187.7</ele>
        <time>2021-12-29T15:07:08Z</time>
      </trkpt>
      <trkpt lat="42.53516" lon="2.01561">
        <ele>2192.7</ele>
        <time>2021-12-29T15:07:18Z</time>
      </trkpt>
      <trkpt lat="42.53524" lon="2.01564">
        <ele>2194.6</ele>
        <time>2021-12-29T15:07:28Z</time>
      </trkpt>
      <trkpt lat="42.53525" lon="2.01574">
        <ele>2194.5</ele>
        <time>2021-12-29T15:07:38Z</time>
      </trkpt>
      <trkpt lat="42.53528" lon="2.01598">
        <ele>2193.4</ele>
        <time>2021-12-29T15:08:08Z</time>
      </trkpt>
      <trkpt lat="42.53542" lon="2.01637">
        <ele>2193.3</ele>
        <time>2021-12-29T15:08:28Z</time>
      </trkpt>
      <trkpt lat="42.53557" lon="2.01705">
        <ele>2189.8</ele>
        <time>2021-12-29T15:08:38Z</time>
      </trkpt>
      <trkpt lat="42.53562" lon="2.01784">
        <ele>2183.6</ele>
        <time>2021-12-29T15:08:48Z</time>
      </trkpt>
      <trkpt lat="42.53557" lon="2.0182">
        <ele>2179.4</ele>
        <time>2021-12-29T15:08:58Z</time>
      </trkpt>
      <trkpt lat="42.53551" lon="2.01853">
        <ele>2174.9</ele>
        <time>2021-12-29T15:09:08Z</time>
      </trkpt>
      <trkpt lat="42.53544" lon="2.01894">
        <ele>2169.4</ele>
        <time>2021-12-29T15:09:18Z</time>
      </trkpt>
      <trkpt lat="42.53536" lon="2.01952">
        <ele>2162.6</ele>
        <time>2021-12-29T15:09:28Z</time>
      </trkpt>
      <trkpt lat="42.53513" lon="2.02039">
        <ele>2152.1</ele>
        <time>2021-12-29T15:09:38Z</time>
      </trkpt>
      <trkpt lat="42.53495" lon="2.02125">
        <ele>2149.9</ele>
        <time>2021-12-29T15:09:48Z</time>
      </trkpt>
      <trkpt lat="42.53494" lon="2.02209">
        <ele>2151.1</ele>
        <time>2021-12-29T15:09:58Z</time>
      </trkpt>
      <trkpt lat="42.53515" lon="2.02322">
        <ele>2151.5</ele>
        <time>2021-12-29T15:10:08Z</time>
      </trkpt>
      <trkpt lat="42.53527" lon="2.02452">
        <ele>2143.3</ele>
        <time>2021-12-29T15:10:18Z</time>
      </trkpt>
      <trkpt lat="42.53536" lon="2.02573">
        <ele>2133.9</ele>
        <time>2021-12-29T15:10:28Z</time>
      </trkpt>
      <trkpt lat="42.53532" lon="2.0267">
        <ele>2127.1</ele>
        <time>2021-12-29T15:10:38Z</time>
      </trkpt>
      <trkpt lat="42.53489" lon="2.0269">
        <ele>2123.9</ele>
        <time>2021-12-29T15:10:48Z</time>
      </trkpt>
      <trkpt lat="42.53449" lon="2.02717">
        <ele>2117.2</ele>
        <time>2021-12-29T15:10:58Z</time>
      </trkpt>
      <trkpt lat="42.53425" lon="2.02774">
        <ele>2114.1</ele>
        <time>2021-12-29T15:11:08Z</time>
      </trkpt>
      <trkpt lat="42.53409" lon="2.0281">
        <ele>2113</ele>
        <time>2021-12-29T15:11:18Z</time>
      </trkpt>
      <trkpt lat="42.5339" lon="2.02848">
        <ele>2112.3</ele>
        <time>2021-12-29T15:11:28Z</time>
      </trkpt>
      <trkpt lat="42.53376" lon="2.02882">
        <ele>2112.8</ele>
        <time>2021-12-29T15:11:38Z</time>
      </trkpt>
      <trkpt lat="42.53359" lon="2.0292">
        <ele>2114</ele>
        <time>2021-12-29T15:11:48Z</time>
      </trkpt>
      <trkpt lat="42.53347" lon="2.02946">
        <ele>2114.7</ele>
        <time>2021-12-29T15:11:58Z</time>
      </trkpt>
      <trkpt lat="42.53349" lon="2.02946">
        <ele>2114.9</ele>
      </trkpt>
      <trkpt lat="42.53347" lon="2.02959">
        <ele>2115.5</ele>
        <time>2021-12-29T15:12:18Z</time>
      </trkpt>
      <trkpt lat="42.53361" lon="2.02999">
        <ele>2118</ele>
        <time>2021-12-29T15:12:38Z</time>
      </trkpt>
      <trkpt lat="42.53367" lon="2.03041">
        <ele>2119.4</ele>
        <time>2021-12-29T15:12:48Z</time>
      </trkpt>
      <trkpt lat="42.53368" lon="2.03085">
        <ele>2120.6</ele>
        <time>2021-12-29T15:12:58Z</time>
      </trkpt>
      <trkpt lat="42.53358" lon="2.03126">
        <ele>2121.2</ele>
        <time>2021-12-29T15:13:08Z</time>
      </trkpt>
      <trkpt lat="42.53351" lon="2.03159">
        <ele>2121.7</ele>
        <time>2021-12-29T15:13:18Z</time>
      </trkpt>
      <trkpt lat="42.53335" lon="2.0324">
        <ele>2118.5</ele>
        <time>2021-12-29T15:13:28Z</time>
      </trkpt>
      <trkpt lat="42.53319" lon="2.03295">
        <ele>2116.1</ele>
        <time>2021-12-29T15:13:38Z</time>
      </trkpt>
      <trkpt lat="42.53306" lon="2.03335">
        <ele>2113.9</ele>
        <time>2021-12-29T15:13:48Z</time>
      </trkpt>
      <trkpt lat="42.53302" lon="2.03389">
        <ele>2110.2</ele>
        <time>2021-12-29T15:14:38Z</time>
      </trkpt>
      <trkpt lat="42.5333" lon="2.03447">
        <ele>2106</ele>
        <time>2021-12-29T15:14:58Z</time>
      </trkpt>
      <trkpt lat="42.53358" lon="2.03527">
        <ele>2095.2</ele>
        <time>2021-12-29T15:15:08Z</time>
      </trkpt>
      <trkpt lat="42.53384" lon="2.03639">
        <ele>2075.6</ele>
        <time>2021-12-29T15:15:18Z</time>
      </trkpt>
      <trkpt lat="42.53413" lon="2.03751">
        <ele>2057.8</ele>
        <time>2021-12-29T15:15:28Z</time>
      </trkpt>
      <trkpt lat="42.53452" lon="2.0386">
        <ele>2040.2</ele>
        <time>2021-12-29T15:15:38Z</time>
      </trkpt>
      <trkpt lat="42.53476" lon="2.03969">
        <ele>2027</ele>
        <time>2021-12-29T15:15:48Z</time>
      </trkpt>
      <trkpt lat="42.53475" lon="2.04071">
        <ele>2017</ele>
        <time>2021-12-29T15:15:58Z</time>
      </trkpt>
      <trkpt lat="42.53454" lon="2.04147">
        <ele>2009.5</ele>
        <time>2021-12-29T15:16:08Z</time>
      </trkpt>
      <trkpt lat="42.53445" lon="2.04184">
        <ele>2006.5</ele>
        <time>2021-12-29T15:16:38Z</time>
      </trkpt>
      <trkpt lat="42.5344" lon="2.04199">
        <ele>2005.7</ele>
        <time>2021-12-29T15:23:58Z</time>
      </trkpt>
      <trkpt lat="42.53438" lon="2.0422">
        <ele>2004.3</ele>
        <time>2021-12-29T15:25:48Z</time>
      </trkpt>
      <trkpt lat="42.53482" lon="2.04204">
        <ele>2004.5</ele>
        <time>2021-12-29T15:26:18Z</time>
      </trkpt>
    </trkseg>
  </trk>
</gpx>